<?xml version="1.0" encoding="UTF-8" standalone="no" ?>
<gpx xmlns="http://www.topografix.com/GPX/1/1" xmlns:xsi="http://www.w3.org/2001/XMLSchema-instance" xsi:schemaLocation="http://www.topografix.com/GPX/1/1 http://www.topografix.com/GPX/1/1/gpx.xsd" version="1.1" creator="VisuGPX - https://www.visugpx.com">
  <metadata>
    <name>Rando : Circuit de St Jacques partant de Nibles </name>
    <desc><![CDATA[Parcours un peu monotone essentiellement sur pistes forestières, sa faible altitude  permet de randonner quand il y a de la neige en montagne Le dénivelé donné par l\'OT hautes terres de Provence (600 m) est exagéré ]]></desc>
  </metadata>
  <trk>
    <name><![CDATA[N°  Circuite de St Jeacques NIBLES]]></name>
    <trkseg>
      <trkpt lat="44.28235" lon="6.0185">
        <ele>557.702148</ele>
        <time>2012-01-25T08:53:31Z</time>
      </trkpt>
      <trkpt lat="44.28179" lon="6.01879">
        <ele>558.182861</ele>
        <time>2012-01-25T08:53:41Z</time>
      </trkpt>
      <trkpt lat="44.28179" lon="6.01879">
        <ele>559.144043</ele>
        <time>2012-01-25T08:53:48Z</time>
      </trkpt>
      <trkpt lat="44.28179" lon="6.01879">
        <ele>562.508545</ele>
        <time>2012-01-25T08:53:56Z</time>
      </trkpt>
      <trkpt lat="44.28179" lon="6.01879">
        <ele>566.35376</ele>
        <time>2012-01-25T08:54:07Z</time>
      </trkpt>
      <trkpt lat="44.28178" lon="6.01879">
        <ele>568.276367</ele>
        <time>2012-01-25T08:54:10Z</time>
      </trkpt>
      <trkpt lat="44.28178" lon="6.01879">
        <ele>570.198975</ele>
        <time>2012-01-25T08:54:21Z</time>
      </trkpt>
      <trkpt lat="44.28178" lon="6.0188">
        <ele>572.121826</ele>
        <time>2012-01-25T08:54:23Z</time>
      </trkpt>
      <trkpt lat="44.28179" lon="6.01878">
        <ele>575.005859</ele>
        <time>2012-01-25T08:54:35Z</time>
      </trkpt>
      <trkpt lat="44.28179" lon="6.01877">
        <ele>575.005859</ele>
        <time>2012-01-25T08:54:36Z</time>
      </trkpt>
      <trkpt lat="44.2818" lon="6.01873">
        <ele>575.005859</ele>
        <time>2012-01-25T08:54:38Z</time>
      </trkpt>
      <trkpt lat="44.28182" lon="6.01871">
        <ele>576.447754</ele>
        <time>2012-01-25T08:54:40Z</time>
      </trkpt>
      <trkpt lat="44.28183" lon="6.0187">
        <ele>577.889648</ele>
        <time>2012-01-25T08:54:42Z</time>
      </trkpt>
      <trkpt lat="44.28184" lon="6.01865">
        <ele>578.370361</ele>
        <time>2012-01-25T08:54:46Z</time>
      </trkpt>
      <trkpt lat="44.28186" lon="6.01854">
        <ele>580.292969</ele>
        <time>2012-01-25T08:54:57Z</time>
      </trkpt>
      <trkpt lat="44.28189" lon="6.01836">
        <ele>582.215576</ele>
        <time>2012-01-25T08:55:12Z</time>
      </trkpt>
      <trkpt lat="44.28191" lon="6.01791">
        <ele>584.138184</ele>
        <time>2012-01-25T08:55:37Z</time>
      </trkpt>
      <trkpt lat="44.28195" lon="6.0178">
        <ele>585.099609</ele>
        <time>2012-01-25T08:55:45Z</time>
      </trkpt>
      <trkpt lat="44.28197" lon="6.0178">
        <ele>587.021973</ele>
        <time>2012-01-25T08:55:47Z</time>
      </trkpt>
      <trkpt lat="44.28201" lon="6.01777">
        <ele>586.060791</ele>
        <time>2012-01-25T08:55:50Z</time>
      </trkpt>
      <trkpt lat="44.2822" lon="6.01778">
        <ele>584.618896</ele>
        <time>2012-01-25T08:56:06Z</time>
      </trkpt>
      <trkpt lat="44.28223" lon="6.0178">
        <ele>584.618896</ele>
        <time>2012-01-25T08:56:09Z</time>
      </trkpt>
      <trkpt lat="44.28239" lon="6.01762">
        <ele>583.176758</ele>
        <time>2012-01-25T08:56:25Z</time>
      </trkpt>
      <trkpt lat="44.28239" lon="6.0176">
        <ele>584.618896</ele>
        <time>2012-01-25T08:56:27Z</time>
      </trkpt>
      <trkpt lat="44.28229" lon="6.01735">
        <ele>583.657471</ele>
        <time>2012-01-25T08:56:46Z</time>
      </trkpt>
      <trkpt lat="44.28225" lon="6.01728">
        <ele>583.176758</ele>
        <time>2012-01-25T08:56:51Z</time>
      </trkpt>
      <trkpt lat="44.28211" lon="6.01708">
        <ele>582.215576</ele>
        <time>2012-01-25T08:57:08Z</time>
      </trkpt>
      <trkpt lat="44.28198" lon="6.01682">
        <ele>582.215576</ele>
        <time>2012-01-25T08:57:25Z</time>
      </trkpt>
      <trkpt lat="44.28192" lon="6.01669">
        <ele>582.215576</ele>
        <time>2012-01-25T08:57:38Z</time>
      </trkpt>
      <trkpt lat="44.28194" lon="6.01663">
        <ele>582.215576</ele>
        <time>2012-01-25T08:57:42Z</time>
      </trkpt>
      <trkpt lat="44.28209" lon="6.01631">
        <ele>581.734863</ele>
        <time>2012-01-25T08:58:04Z</time>
      </trkpt>
      <trkpt lat="44.28222" lon="6.01609">
        <ele>581.734863</ele>
        <time>2012-01-25T08:58:20Z</time>
      </trkpt>
      <trkpt lat="44.28236" lon="6.01586">
        <ele>581.734863</ele>
        <time>2012-01-25T08:58:38Z</time>
      </trkpt>
      <trkpt lat="44.2824" lon="6.01574">
        <ele>580.773682</ele>
        <time>2012-01-25T08:58:46Z</time>
      </trkpt>
      <trkpt lat="44.28244" lon="6.01554">
        <ele>582.215576</ele>
        <time>2012-01-25T08:58:59Z</time>
      </trkpt>
      <trkpt lat="44.28242" lon="6.01552">
        <ele>580.773682</ele>
        <time>2012-01-25T08:59:01Z</time>
      </trkpt>
      <trkpt lat="44.28241" lon="6.01548">
        <ele>581.734863</ele>
        <time>2012-01-25T08:59:03Z</time>
      </trkpt>
      <trkpt lat="44.28215" lon="6.01521">
        <ele>581.734863</ele>
        <time>2012-01-25T08:59:26Z</time>
      </trkpt>
      <trkpt lat="44.28204" lon="6.01512">
        <ele>581.254395</ele>
        <time>2012-01-25T08:59:36Z</time>
      </trkpt>
      <trkpt lat="44.28192" lon="6.01497">
        <ele>581.734863</ele>
        <time>2012-01-25T08:59:50Z</time>
      </trkpt>
      <trkpt lat="44.28186" lon="6.01491">
        <ele>581.734863</ele>
        <time>2012-01-25T08:59:56Z</time>
      </trkpt>
      <trkpt lat="44.28163" lon="6.01469">
        <ele>581.734863</ele>
        <time>2012-01-25T09:00:18Z</time>
      </trkpt>
      <trkpt lat="44.28155" lon="6.01459">
        <ele>580.773682</ele>
        <time>2012-01-25T09:00:27Z</time>
      </trkpt>
      <trkpt lat="44.28154" lon="6.01453">
        <ele>582.215576</ele>
        <time>2012-01-25T09:00:30Z</time>
      </trkpt>
      <trkpt lat="44.2816" lon="6.01436">
        <ele>582.696289</ele>
        <time>2012-01-25T09:00:42Z</time>
      </trkpt>
      <trkpt lat="44.28159" lon="6.01417">
        <ele>585.099609</ele>
        <time>2012-01-25T09:00:58Z</time>
      </trkpt>
      <trkpt lat="44.28158" lon="6.01411">
        <ele>585.580078</ele>
        <time>2012-01-25T09:01:03Z</time>
      </trkpt>
      <trkpt lat="44.28161" lon="6.01393">
        <ele>588.945068</ele>
        <time>2012-01-25T09:01:17Z</time>
      </trkpt>
      <trkpt lat="44.28162" lon="6.01382">
        <ele>592.30957</ele>
        <time>2012-01-25T09:01:34Z</time>
      </trkpt>
      <trkpt lat="44.28161" lon="6.0136">
        <ele>594.232178</ele>
        <time>2012-01-25T09:01:52Z</time>
      </trkpt>
      <trkpt lat="44.28165" lon="6.01358">
        <ele>597.115967</ele>
        <time>2012-01-25T09:02:08Z</time>
      </trkpt>
      <trkpt lat="44.28166" lon="6.01345">
        <ele>600</ele>
        <time>2012-01-25T09:02:27Z</time>
      </trkpt>
      <trkpt lat="44.28171" lon="6.01346">
        <ele>601.922607</ele>
        <time>2012-01-25T09:02:39Z</time>
      </trkpt>
      <trkpt lat="44.28171" lon="6.01335">
        <ele>604.806641</ele>
        <time>2012-01-25T09:02:56Z</time>
      </trkpt>
      <trkpt lat="44.28171" lon="6.01326">
        <ele>606.248535</ele>
        <time>2012-01-25T09:03:08Z</time>
      </trkpt>
      <trkpt lat="44.28171" lon="6.01314">
        <ele>609.132568</ele>
        <time>2012-01-25T09:03:24Z</time>
      </trkpt>
      <trkpt lat="44.28177" lon="6.01324">
        <ele>610.09375</ele>
        <time>2012-01-25T09:03:39Z</time>
      </trkpt>
      <trkpt lat="44.28179" lon="6.01313">
        <ele>612.016602</ele>
        <time>2012-01-25T09:03:51Z</time>
      </trkpt>
      <trkpt lat="44.2817" lon="6.01291">
        <ele>613.458496</ele>
        <time>2012-01-25T09:04:13Z</time>
      </trkpt>
      <trkpt lat="44.28164" lon="6.01275">
        <ele>614.900391</ele>
        <time>2012-01-25T09:04:28Z</time>
      </trkpt>
      <trkpt lat="44.28163" lon="6.01274">
        <ele>615.381104</ele>
        <time>2012-01-25T09:04:29Z</time>
      </trkpt>
      <trkpt lat="44.28158" lon="6.01256">
        <ele>616.342285</ele>
        <time>2012-01-25T09:04:42Z</time>
      </trkpt>
      <trkpt lat="44.28161" lon="6.01254">
        <ele>617.303711</ele>
        <time>2012-01-25T09:04:52Z</time>
      </trkpt>
      <trkpt lat="44.2817" lon="6.01278">
        <ele>619.226318</ele>
        <time>2012-01-25T09:05:09Z</time>
      </trkpt>
      <trkpt lat="44.28171" lon="6.01279">
        <ele>619.226318</ele>
        <time>2012-01-25T09:05:10Z</time>
      </trkpt>
      <trkpt lat="44.28176" lon="6.01288">
        <ele>620.668457</ele>
        <time>2012-01-25T09:05:19Z</time>
      </trkpt>
      <trkpt lat="44.28183" lon="6.01302">
        <ele>621.14917</ele>
        <time>2012-01-25T09:05:33Z</time>
      </trkpt>
      <trkpt lat="44.28186" lon="6.01307">
        <ele>622.110352</ele>
        <time>2012-01-25T09:05:58Z</time>
      </trkpt>
      <trkpt lat="44.28187" lon="6.01302">
        <ele>622.591064</ele>
        <time>2012-01-25T09:06:48Z</time>
      </trkpt>
      <trkpt lat="44.28189" lon="6.01307">
        <ele>624.032959</ele>
        <time>2012-01-25T09:07:19Z</time>
      </trkpt>
      <trkpt lat="44.28194" lon="6.01306">
        <ele>624.513672</ele>
        <time>2012-01-25T09:07:34Z</time>
      </trkpt>
      <trkpt lat="44.28198" lon="6.01318">
        <ele>624.513672</ele>
        <time>2012-01-25T09:07:44Z</time>
      </trkpt>
      <trkpt lat="44.28201" lon="6.01343">
        <ele>627.397705</ele>
        <time>2012-01-25T09:08:06Z</time>
      </trkpt>
      <trkpt lat="44.28204" lon="6.01337">
        <ele>628.8396</ele>
        <time>2012-01-25T09:08:16Z</time>
      </trkpt>
      <trkpt lat="44.28204" lon="6.01305">
        <ele>630.281494</ele>
        <time>2012-01-25T09:08:38Z</time>
      </trkpt>
      <trkpt lat="44.28196" lon="6.01285">
        <ele>632.204102</ele>
        <time>2012-01-25T09:08:56Z</time>
      </trkpt>
      <trkpt lat="44.28188" lon="6.0126">
        <ele>634.607422</ele>
        <time>2012-01-25T09:09:16Z</time>
      </trkpt>
      <trkpt lat="44.28188" lon="6.01227">
        <ele>636.530273</ele>
        <time>2012-01-25T09:09:42Z</time>
      </trkpt>
      <trkpt lat="44.28193" lon="6.01236">
        <ele>637.972168</ele>
        <time>2012-01-25T09:09:52Z</time>
      </trkpt>
      <trkpt lat="44.28199" lon="6.01262">
        <ele>638.933594</ele>
        <time>2012-01-25T09:10:10Z</time>
      </trkpt>
      <trkpt lat="44.28201" lon="6.01265">
        <ele>638.933594</ele>
        <time>2012-01-25T09:10:14Z</time>
      </trkpt>
      <trkpt lat="44.28215" lon="6.01269">
        <ele>639.894775</ele>
        <time>2012-01-25T09:10:27Z</time>
      </trkpt>
      <trkpt lat="44.28225" lon="6.01269">
        <ele>641.33667</ele>
        <time>2012-01-25T09:10:41Z</time>
      </trkpt>
      <trkpt lat="44.28238" lon="6.01268">
        <ele>642.778809</ele>
        <time>2012-01-25T09:10:58Z</time>
      </trkpt>
      <trkpt lat="44.28242" lon="6.01269">
        <ele>643.259277</ele>
        <time>2012-01-25T09:11:02Z</time>
      </trkpt>
      <trkpt lat="44.28257" lon="6.01264">
        <ele>645.181885</ele>
        <time>2012-01-25T09:11:18Z</time>
      </trkpt>
      <trkpt lat="44.28257" lon="6.0126">
        <ele>645.181885</ele>
        <time>2012-01-25T09:11:21Z</time>
      </trkpt>
      <trkpt lat="44.28256" lon="6.01247">
        <ele>647.104492</ele>
        <time>2012-01-25T09:11:31Z</time>
      </trkpt>
      <trkpt lat="44.28255" lon="6.01239">
        <ele>647.585205</ele>
        <time>2012-01-25T09:11:37Z</time>
      </trkpt>
      <trkpt lat="44.28244" lon="6.01227">
        <ele>649.988525</ele>
        <time>2012-01-25T09:11:55Z</time>
      </trkpt>
      <trkpt lat="44.28231" lon="6.01223">
        <ele>651.43042</ele>
        <time>2012-01-25T09:12:12Z</time>
      </trkpt>
      <trkpt lat="44.28227" lon="6.01222">
        <ele>651.911133</ele>
        <time>2012-01-25T09:12:17Z</time>
      </trkpt>
      <trkpt lat="44.28216" lon="6.01205">
        <ele>653.833984</ele>
        <time>2012-01-25T09:12:36Z</time>
      </trkpt>
      <trkpt lat="44.2822" lon="6.01204">
        <ele>654.795166</ele>
        <time>2012-01-25T09:12:44Z</time>
      </trkpt>
      <trkpt lat="44.2823" lon="6.01208">
        <ele>655.756592</ele>
        <time>2012-01-25T09:12:55Z</time>
      </trkpt>
      <trkpt lat="44.28241" lon="6.01206">
        <ele>657.198486</ele>
        <time>2012-01-25T09:13:07Z</time>
      </trkpt>
      <trkpt lat="44.28242" lon="6.01207">
        <ele>657.198486</ele>
        <time>2012-01-25T09:13:08Z</time>
      </trkpt>
      <trkpt lat="44.28256" lon="6.01202">
        <ele>658.640381</ele>
        <time>2012-01-25T09:13:26Z</time>
      </trkpt>
      <trkpt lat="44.2825" lon="6.01195">
        <ele>660.562988</ele>
        <time>2012-01-25T09:13:39Z</time>
      </trkpt>
      <trkpt lat="44.28237" lon="6.01193">
        <ele>661.043701</ele>
        <time>2012-01-25T09:13:53Z</time>
      </trkpt>
      <trkpt lat="44.28233" lon="6.01192">
        <ele>662.005127</ele>
        <time>2012-01-25T09:13:58Z</time>
      </trkpt>
      <trkpt lat="44.28227" lon="6.01184">
        <ele>662.966309</ele>
        <time>2012-01-25T09:14:09Z</time>
      </trkpt>
      <trkpt lat="44.28228" lon="6.01182">
        <ele>662.966309</ele>
        <time>2012-01-25T09:14:11Z</time>
      </trkpt>
      <trkpt lat="44.2824" lon="6.01183">
        <ele>664.408203</ele>
        <time>2012-01-25T09:14:26Z</time>
      </trkpt>
      <trkpt lat="44.28254" lon="6.01183">
        <ele>666.330811</ele>
        <time>2012-01-25T09:14:42Z</time>
      </trkpt>
      <trkpt lat="44.28266" lon="6.01171">
        <ele>668.253662</ele>
        <time>2012-01-25T09:15:01Z</time>
      </trkpt>
      <trkpt lat="44.28279" lon="6.01164">
        <ele>670.17627</ele>
        <time>2012-01-25T09:15:17Z</time>
      </trkpt>
      <trkpt lat="44.28294" lon="6.01157">
        <ele>672.57959</ele>
        <time>2012-01-25T09:15:35Z</time>
      </trkpt>
      <trkpt lat="44.28306" lon="6.0115">
        <ele>674.021484</ele>
        <time>2012-01-25T09:15:51Z</time>
      </trkpt>
      <trkpt lat="44.28306" lon="6.01149">
        <ele>674.502197</ele>
        <time>2012-01-25T09:15:52Z</time>
      </trkpt>
      <trkpt lat="44.28308" lon="6.01142">
        <ele>674.502197</ele>
        <time>2012-01-25T09:15:57Z</time>
      </trkpt>
      <trkpt lat="44.28306" lon="6.0112">
        <ele>676.424805</ele>
        <time>2012-01-25T09:16:14Z</time>
      </trkpt>
      <trkpt lat="44.28303" lon="6.01102">
        <ele>677.38623</ele>
        <time>2012-01-25T09:16:27Z</time>
      </trkpt>
      <trkpt lat="44.28303" lon="6.01086">
        <ele>678.828125</ele>
        <time>2012-01-25T09:16:41Z</time>
      </trkpt>
      <trkpt lat="44.28305" lon="6.01075">
        <ele>680.27002</ele>
        <time>2012-01-25T09:16:51Z</time>
      </trkpt>
      <trkpt lat="44.28311" lon="6.0106">
        <ele>681.711914</ele>
        <time>2012-01-25T09:17:05Z</time>
      </trkpt>
      <trkpt lat="44.28314" lon="6.01047">
        <ele>682.67334</ele>
        <time>2012-01-25T09:17:17Z</time>
      </trkpt>
      <trkpt lat="44.28324" lon="6.01029">
        <ele>684.115479</ele>
        <time>2012-01-25T09:17:33Z</time>
      </trkpt>
      <trkpt lat="44.28327" lon="6.01025">
        <ele>684.596191</ele>
        <time>2012-01-25T09:17:37Z</time>
      </trkpt>
      <trkpt lat="44.2833" lon="6.01023">
        <ele>684.596191</ele>
        <time>2012-01-25T09:17:41Z</time>
      </trkpt>
      <trkpt lat="44.28337" lon="6.01016">
        <ele>685.557373</ele>
        <time>2012-01-25T09:17:50Z</time>
      </trkpt>
      <trkpt lat="44.28339" lon="6.01013">
        <ele>685.557373</ele>
        <time>2012-01-25T09:17:53Z</time>
      </trkpt>
      <trkpt lat="44.28346" lon="6.01005">
        <ele>686.518799</ele>
        <time>2012-01-25T09:18:04Z</time>
      </trkpt>
      <trkpt lat="44.28348" lon="6.01002">
        <ele>687.960693</ele>
        <time>2012-01-25T09:18:08Z</time>
      </trkpt>
      <trkpt lat="44.28349" lon="6.01">
        <ele>687.47998</ele>
        <time>2012-01-25T09:18:11Z</time>
      </trkpt>
      <trkpt lat="44.28353" lon="6.00998">
        <ele>687.960693</ele>
        <time>2012-01-25T09:18:17Z</time>
      </trkpt>
      <trkpt lat="44.28355" lon="6.00994">
        <ele>687.960693</ele>
        <time>2012-01-25T09:18:21Z</time>
      </trkpt>
      <trkpt lat="44.28361" lon="6.00987">
        <ele>688.922119</ele>
        <time>2012-01-25T09:18:29Z</time>
      </trkpt>
      <trkpt lat="44.28368" lon="6.00973">
        <ele>690.364014</ele>
        <time>2012-01-25T09:18:43Z</time>
      </trkpt>
      <trkpt lat="44.28367" lon="6.0096">
        <ele>691.805908</ele>
        <time>2012-01-25T09:18:58Z</time>
      </trkpt>
      <trkpt lat="44.28367" lon="6.00958">
        <ele>691.805908</ele>
        <time>2012-01-25T09:19:00Z</time>
      </trkpt>
      <trkpt lat="44.2836" lon="6.0093">
        <ele>693.728516</ele>
        <time>2012-01-25T09:19:21Z</time>
      </trkpt>
      <trkpt lat="44.28364" lon="6.00921">
        <ele>694.209229</ele>
        <time>2012-01-25T09:19:29Z</time>
      </trkpt>
      <trkpt lat="44.28373" lon="6.00906">
        <ele>695.17041</ele>
        <time>2012-01-25T09:19:43Z</time>
      </trkpt>
      <trkpt lat="44.28376" lon="6.00902">
        <ele>695.651123</ele>
        <time>2012-01-25T09:19:47Z</time>
      </trkpt>
      <trkpt lat="44.28388" lon="6.00892">
        <ele>696.612549</ele>
        <time>2012-01-25T09:20:04Z</time>
      </trkpt>
      <trkpt lat="44.28393" lon="6.00888">
        <ele>697.093018</ele>
        <time>2012-01-25T09:20:22Z</time>
      </trkpt>
      <trkpt lat="44.28398" lon="6.00884">
        <ele>697.57373</ele>
        <time>2012-01-25T09:20:28Z</time>
      </trkpt>
      <trkpt lat="44.28403" lon="6.00874">
        <ele>697.093018</ele>
        <time>2012-01-25T09:20:36Z</time>
      </trkpt>
      <trkpt lat="44.28405" lon="6.00871">
        <ele>698.054443</ele>
        <time>2012-01-25T09:20:39Z</time>
      </trkpt>
      <trkpt lat="44.28411" lon="6.00852">
        <ele>699.496338</ele>
        <time>2012-01-25T09:21:00Z</time>
      </trkpt>
      <trkpt lat="44.28414" lon="6.0083">
        <ele>702.861084</ele>
        <time>2012-01-25T09:21:21Z</time>
      </trkpt>
      <trkpt lat="44.2841" lon="6.00809">
        <ele>703.341797</ele>
        <time>2012-01-25T09:21:39Z</time>
      </trkpt>
      <trkpt lat="44.28405" lon="6.0079">
        <ele>705.745117</ele>
        <time>2012-01-25T09:21:54Z</time>
      </trkpt>
      <trkpt lat="44.28408" lon="6.00783">
        <ele>705.745117</ele>
        <time>2012-01-25T09:22:01Z</time>
      </trkpt>
      <trkpt lat="44.28426" lon="6.00777">
        <ele>707.667725</ele>
        <time>2012-01-25T09:22:21Z</time>
      </trkpt>
      <trkpt lat="44.28431" lon="6.00771">
        <ele>708.628906</ele>
        <time>2012-01-25T09:22:27Z</time>
      </trkpt>
      <trkpt lat="44.28439" lon="6.0075">
        <ele>710.070801</ele>
        <time>2012-01-25T09:22:47Z</time>
      </trkpt>
      <trkpt lat="44.28448" lon="6.00729">
        <ele>711.993652</ele>
        <time>2012-01-25T09:23:05Z</time>
      </trkpt>
      <trkpt lat="44.28464" lon="6.00711">
        <ele>713.435547</ele>
        <time>2012-01-25T09:23:26Z</time>
      </trkpt>
      <trkpt lat="44.28475" lon="6.00692">
        <ele>714.877441</ele>
        <time>2012-01-25T09:23:44Z</time>
      </trkpt>
      <trkpt lat="44.2849" lon="6.00685">
        <ele>716.800293</ele>
        <time>2012-01-25T09:24:03Z</time>
      </trkpt>
      <trkpt lat="44.28506" lon="6.00669">
        <ele>719.203613</ele>
        <time>2012-01-25T09:24:26Z</time>
      </trkpt>
      <trkpt lat="44.28513" lon="6.00647">
        <ele>721.126221</ele>
        <time>2012-01-25T09:24:47Z</time>
      </trkpt>
      <trkpt lat="44.28522" lon="6.00632">
        <ele>722.568115</ele>
        <time>2012-01-25T09:25:05Z</time>
      </trkpt>
      <trkpt lat="44.28539" lon="6.00623">
        <ele>724.490723</ele>
        <time>2012-01-25T09:25:26Z</time>
      </trkpt>
      <trkpt lat="44.28557" lon="6.00624">
        <ele>726.894043</ele>
        <time>2012-01-25T09:25:48Z</time>
      </trkpt>
      <trkpt lat="44.28574" lon="6.00611">
        <ele>728.335938</ele>
        <time>2012-01-25T09:26:07Z</time>
      </trkpt>
      <trkpt lat="44.28562" lon="6.00609">
        <ele>729.777832</ele>
        <time>2012-01-25T09:26:21Z</time>
      </trkpt>
      <trkpt lat="44.28552" lon="6.00598">
        <ele>730.739258</ele>
        <time>2012-01-25T09:26:37Z</time>
      </trkpt>
      <trkpt lat="44.28537" lon="6.00578">
        <ele>732.181396</ele>
        <time>2012-01-25T09:26:59Z</time>
      </trkpt>
      <trkpt lat="44.2852" lon="6.00567">
        <ele>733.623291</ele>
        <time>2012-01-25T09:27:19Z</time>
      </trkpt>
      <trkpt lat="44.28521" lon="6.00566">
        <ele>733.623291</ele>
        <time>2012-01-25T09:27:20Z</time>
      </trkpt>
      <trkpt lat="44.28527" lon="6.00566">
        <ele>735.06543</ele>
        <time>2012-01-25T09:27:35Z</time>
      </trkpt>
      <trkpt lat="44.28544" lon="6.00574">
        <ele>736.987793</ele>
        <time>2012-01-25T09:27:58Z</time>
      </trkpt>
      <trkpt lat="44.28561" lon="6.0055">
        <ele>738.429932</ele>
        <time>2012-01-25T09:28:17Z</time>
      </trkpt>
      <trkpt lat="44.28563" lon="6.00543">
        <ele>739.871826</ele>
        <time>2012-01-25T09:28:28Z</time>
      </trkpt>
      <trkpt lat="44.28564" lon="6.00544">
        <ele>738.910645</ele>
        <time>2012-01-25T09:28:35Z</time>
      </trkpt>
      <trkpt lat="44.28571" lon="6.0053">
        <ele>740.352539</ele>
        <time>2012-01-25T09:28:53Z</time>
      </trkpt>
      <trkpt lat="44.28579" lon="6.00505">
        <ele>742.755859</ele>
        <time>2012-01-25T09:29:15Z</time>
      </trkpt>
      <trkpt lat="44.28593" lon="6.00474">
        <ele>746.601074</ele>
        <time>2012-01-25T09:29:47Z</time>
      </trkpt>
      <trkpt lat="44.28593" lon="6.00473">
        <ele>746.601074</ele>
        <time>2012-01-25T09:29:48Z</time>
      </trkpt>
      <trkpt lat="44.28597" lon="6.00455">
        <ele>747.562256</ele>
        <time>2012-01-25T09:30:02Z</time>
      </trkpt>
      <trkpt lat="44.28598" lon="6.00454">
        <ele>747.562256</ele>
        <time>2012-01-25T09:30:03Z</time>
      </trkpt>
      <trkpt lat="44.28597" lon="6.00431">
        <ele>749.485107</ele>
        <time>2012-01-25T09:30:23Z</time>
      </trkpt>
      <trkpt lat="44.28601" lon="6.00407">
        <ele>750.927002</ele>
        <time>2012-01-25T09:30:41Z</time>
      </trkpt>
      <trkpt lat="44.28606" lon="6.00384">
        <ele>751.888428</ele>
        <time>2012-01-25T09:31:01Z</time>
      </trkpt>
      <trkpt lat="44.28606" lon="6.00364">
        <ele>752.368896</ele>
        <time>2012-01-25T09:31:14Z</time>
      </trkpt>
      <trkpt lat="44.28613" lon="6.00334">
        <ele>754.291748</ele>
        <time>2012-01-25T09:31:37Z</time>
      </trkpt>
      <trkpt lat="44.28626" lon="6.00306">
        <ele>755.25293</ele>
        <time>2012-01-25T09:31:59Z</time>
      </trkpt>
      <trkpt lat="44.2863" lon="6.00299">
        <ele>755.733643</ele>
        <time>2012-01-25T09:32:06Z</time>
      </trkpt>
      <trkpt lat="44.28642" lon="6.00275">
        <ele>756.214111</ele>
        <time>2012-01-25T09:32:27Z</time>
      </trkpt>
      <trkpt lat="44.28651" lon="6.00258">
        <ele>757.175537</ele>
        <time>2012-01-25T09:32:44Z</time>
      </trkpt>
      <trkpt lat="44.2866" lon="6.00239">
        <ele>757.65625</ele>
        <time>2012-01-25T09:33:01Z</time>
      </trkpt>
      <trkpt lat="44.28668" lon="6.00219">
        <ele>757.65625</ele>
        <time>2012-01-25T09:33:16Z</time>
      </trkpt>
      <trkpt lat="44.2867" lon="6.00212">
        <ele>757.65625</ele>
        <time>2012-01-25T09:33:22Z</time>
      </trkpt>
      <trkpt lat="44.28678" lon="6.002">
        <ele>757.65625</ele>
        <time>2012-01-25T09:33:33Z</time>
      </trkpt>
      <trkpt lat="44.28685" lon="6.00177">
        <ele>757.175537</ele>
        <time>2012-01-25T09:33:53Z</time>
      </trkpt>
      <trkpt lat="44.28688" lon="6.00161">
        <ele>757.65625</ele>
        <time>2012-01-25T09:34:04Z</time>
      </trkpt>
      <trkpt lat="44.28691" lon="6.00148">
        <ele>757.65625</ele>
        <time>2012-01-25T09:34:14Z</time>
      </trkpt>
      <trkpt lat="44.28698" lon="6.00126">
        <ele>759.098145</ele>
        <time>2012-01-25T09:34:32Z</time>
      </trkpt>
      <trkpt lat="44.28709" lon="6.00105">
        <ele>760.059326</ele>
        <time>2012-01-25T09:34:50Z</time>
      </trkpt>
      <trkpt lat="44.28719" lon="6.00088">
        <ele>761.982178</ele>
        <time>2012-01-25T09:35:07Z</time>
      </trkpt>
      <trkpt lat="44.28727" lon="6.00073">
        <ele>763.904541</ele>
        <time>2012-01-25T09:35:28Z</time>
      </trkpt>
      <trkpt lat="44.28738" lon="6.00037">
        <ele>765.346924</ele>
        <time>2012-01-25T09:35:54Z</time>
      </trkpt>
      <trkpt lat="44.28743" lon="6.00027">
        <ele>766.308105</ele>
        <time>2012-01-25T09:36:07Z</time>
      </trkpt>
      <trkpt lat="44.28753" lon="5.99997">
        <ele>767.269531</ele>
        <time>2012-01-25T09:36:33Z</time>
      </trkpt>
      <trkpt lat="44.28764" lon="5.99967">
        <ele>768.230713</ele>
        <time>2012-01-25T09:36:57Z</time>
      </trkpt>
      <trkpt lat="44.28775" lon="5.99939">
        <ele>768.230713</ele>
        <time>2012-01-25T09:37:15Z</time>
      </trkpt>
      <trkpt lat="44.28782" lon="5.99916">
        <ele>767.269531</ele>
        <time>2012-01-25T09:37:31Z</time>
      </trkpt>
      <trkpt lat="44.28785" lon="5.99911">
        <ele>766.788818</ele>
        <time>2012-01-25T09:37:36Z</time>
      </trkpt>
      <trkpt lat="44.28787" lon="5.99908">
        <ele>766.788818</ele>
        <time>2012-01-25T09:37:38Z</time>
      </trkpt>
      <trkpt lat="44.28798" lon="5.99879">
        <ele>765.827637</ele>
        <time>2012-01-25T09:38:00Z</time>
      </trkpt>
      <trkpt lat="44.28807" lon="5.99856">
        <ele>764.866211</ele>
        <time>2012-01-25T09:38:18Z</time>
      </trkpt>
      <trkpt lat="44.28822" lon="5.99836">
        <ele>763.904541</ele>
        <time>2012-01-25T09:38:38Z</time>
      </trkpt>
      <trkpt lat="44.28831" lon="5.99828">
        <ele>763.424072</ele>
        <time>2012-01-25T09:38:48Z</time>
      </trkpt>
      <trkpt lat="44.28832" lon="5.99825">
        <ele>763.424072</ele>
        <time>2012-01-25T09:38:50Z</time>
      </trkpt>
      <trkpt lat="44.28837" lon="5.99819">
        <ele>762.943359</ele>
        <time>2012-01-25T09:38:58Z</time>
      </trkpt>
      <trkpt lat="44.28844" lon="5.99813">
        <ele>762.462646</ele>
        <time>2012-01-25T09:39:05Z</time>
      </trkpt>
      <trkpt lat="44.28855" lon="5.99795">
        <ele>761.501465</ele>
        <time>2012-01-25T09:39:22Z</time>
      </trkpt>
      <trkpt lat="44.28865" lon="5.99763">
        <ele>760.059326</ele>
        <time>2012-01-25T09:39:45Z</time>
      </trkpt>
      <trkpt lat="44.28869" lon="5.99749">
        <ele>759.098145</ele>
        <time>2012-01-25T09:39:56Z</time>
      </trkpt>
      <trkpt lat="44.28875" lon="5.99727">
        <ele>756.694824</ele>
        <time>2012-01-25T09:40:14Z</time>
      </trkpt>
      <trkpt lat="44.28876" lon="5.99722">
        <ele>756.694824</ele>
        <time>2012-01-25T09:40:17Z</time>
      </trkpt>
      <trkpt lat="44.28887" lon="5.9969">
        <ele>755.25293</ele>
        <time>2012-01-25T09:40:41Z</time>
      </trkpt>
      <trkpt lat="44.2889" lon="5.9967">
        <ele>755.25293</ele>
        <time>2012-01-25T09:40:57Z</time>
      </trkpt>
      <trkpt lat="44.28894" lon="5.99648">
        <ele>755.733643</ele>
        <time>2012-01-25T09:41:14Z</time>
      </trkpt>
      <trkpt lat="44.28905" lon="5.99622">
        <ele>756.694824</ele>
        <time>2012-01-25T09:41:34Z</time>
      </trkpt>
      <trkpt lat="44.28913" lon="5.99605">
        <ele>757.65625</ele>
        <time>2012-01-25T09:41:52Z</time>
      </trkpt>
      <trkpt lat="44.28916" lon="5.996">
        <ele>757.65625</ele>
        <time>2012-01-25T09:42:08Z</time>
      </trkpt>
      <trkpt lat="44.28919" lon="5.9959">
        <ele>757.65625</ele>
        <time>2012-01-25T09:42:22Z</time>
      </trkpt>
      <trkpt lat="44.28929" lon="5.99568">
        <ele>758.617432</ele>
        <time>2012-01-25T09:42:40Z</time>
      </trkpt>
      <trkpt lat="44.28942" lon="5.99537">
        <ele>759.578857</ele>
        <time>2012-01-25T09:43:03Z</time>
      </trkpt>
      <trkpt lat="44.28957" lon="5.99512">
        <ele>760.059326</ele>
        <time>2012-01-25T09:43:25Z</time>
      </trkpt>
      <trkpt lat="44.28972" lon="5.99484">
        <ele>760.059326</ele>
        <time>2012-01-25T09:43:48Z</time>
      </trkpt>
      <trkpt lat="44.28987" lon="5.99456">
        <ele>761.020752</ele>
        <time>2012-01-25T09:44:09Z</time>
      </trkpt>
      <trkpt lat="44.28993" lon="5.99442">
        <ele>761.982178</ele>
        <time>2012-01-25T09:44:21Z</time>
      </trkpt>
      <trkpt lat="44.28995" lon="5.99439">
        <ele>761.501465</ele>
        <time>2012-01-25T09:44:24Z</time>
      </trkpt>
      <trkpt lat="44.29001" lon="5.99426">
        <ele>761.501465</ele>
        <time>2012-01-25T09:44:34Z</time>
      </trkpt>
      <trkpt lat="44.29016" lon="5.9943">
        <ele>762.462646</ele>
        <time>2012-01-25T09:44:49Z</time>
      </trkpt>
      <trkpt lat="44.29025" lon="5.9944">
        <ele>764.385498</ele>
        <time>2012-01-25T09:45:01Z</time>
      </trkpt>
      <trkpt lat="44.29028" lon="5.99443">
        <ele>764.866211</ele>
        <time>2012-01-25T09:45:04Z</time>
      </trkpt>
      <trkpt lat="44.29047" lon="5.99459">
        <ele>767.269531</ele>
        <time>2012-01-25T09:45:26Z</time>
      </trkpt>
      <trkpt lat="44.29063" lon="5.99478">
        <ele>770.15332</ele>
        <time>2012-01-25T09:45:49Z</time>
      </trkpt>
      <trkpt lat="44.29079" lon="5.99487">
        <ele>772.556641</ele>
        <time>2012-01-25T09:46:07Z</time>
      </trkpt>
      <trkpt lat="44.29083" lon="5.9949">
        <ele>773.037354</ele>
        <time>2012-01-25T09:46:11Z</time>
      </trkpt>
      <trkpt lat="44.29085" lon="5.99494">
        <ele>773.998535</ele>
        <time>2012-01-25T09:46:15Z</time>
      </trkpt>
      <trkpt lat="44.29083" lon="5.99502">
        <ele>774.479248</ele>
        <time>2012-01-25T09:46:21Z</time>
      </trkpt>
      <trkpt lat="44.29078" lon="5.9953">
        <ele>776.401855</ele>
        <time>2012-01-25T09:46:41Z</time>
      </trkpt>
      <trkpt lat="44.29074" lon="5.99549">
        <ele>778.805176</ele>
        <time>2012-01-25T09:46:56Z</time>
      </trkpt>
      <trkpt lat="44.29073" lon="5.99567">
        <ele>782.169922</ele>
        <time>2012-01-25T09:47:13Z</time>
      </trkpt>
      <trkpt lat="44.29073" lon="5.99588">
        <ele>784.092529</ele>
        <time>2012-01-25T09:47:30Z</time>
      </trkpt>
      <trkpt lat="44.29081" lon="5.99595">
        <ele>786.49585</ele>
        <time>2012-01-25T09:47:43Z</time>
      </trkpt>
      <trkpt lat="44.29079" lon="5.99601">
        <ele>786.976318</ele>
        <time>2012-01-25T09:47:51Z</time>
      </trkpt>
      <trkpt lat="44.29071" lon="5.99625">
        <ele>786.976318</ele>
        <time>2012-01-25T09:48:09Z</time>
      </trkpt>
      <trkpt lat="44.29066" lon="5.99647">
        <ele>786.015137</ele>
        <time>2012-01-25T09:48:24Z</time>
      </trkpt>
      <trkpt lat="44.29063" lon="5.99662">
        <ele>784.573242</ele>
        <time>2012-01-25T09:48:36Z</time>
      </trkpt>
      <trkpt lat="44.29062" lon="5.99665">
        <ele>786.015137</ele>
        <time>2012-01-25T09:48:38Z</time>
      </trkpt>
      <trkpt lat="44.29054" lon="5.99686">
        <ele>784.573242</ele>
        <time>2012-01-25T09:49:00Z</time>
      </trkpt>
      <trkpt lat="44.29054" lon="5.99688">
        <ele>785.534424</ele>
        <time>2012-01-25T09:49:09Z</time>
      </trkpt>
      <trkpt lat="44.29062" lon="5.99678">
        <ele>785.053955</ele>
        <time>2012-01-25T09:49:20Z</time>
      </trkpt>
      <trkpt lat="44.29064" lon="5.99674">
        <ele>785.534424</ele>
        <time>2012-01-25T09:49:23Z</time>
      </trkpt>
      <trkpt lat="44.29064" lon="5.9967">
        <ele>785.053955</ele>
        <time>2012-01-25T09:49:25Z</time>
      </trkpt>
      <trkpt lat="44.29068" lon="5.99643">
        <ele>785.053955</ele>
        <time>2012-01-25T09:49:44Z</time>
      </trkpt>
      <trkpt lat="44.29073" lon="5.99622">
        <ele>786.976318</ele>
        <time>2012-01-25T09:50:05Z</time>
      </trkpt>
      <trkpt lat="44.2908" lon="5.99602">
        <ele>788.418457</ele>
        <time>2012-01-25T09:50:22Z</time>
      </trkpt>
      <trkpt lat="44.2908" lon="5.996">
        <ele>787.457031</ele>
        <time>2012-01-25T09:50:23Z</time>
      </trkpt>
      <trkpt lat="44.29081" lon="5.99597">
        <ele>787.937744</ele>
        <time>2012-01-25T09:50:25Z</time>
      </trkpt>
      <trkpt lat="44.29078" lon="5.99592">
        <ele>786.49585</ele>
        <time>2012-01-25T09:50:39Z</time>
      </trkpt>
      <trkpt lat="44.29073" lon="5.9959">
        <ele>785.534424</ele>
        <time>2012-01-25T09:50:45Z</time>
      </trkpt>
      <trkpt lat="44.29073" lon="5.99573">
        <ele>784.092529</ele>
        <time>2012-01-25T09:51:00Z</time>
      </trkpt>
      <trkpt lat="44.29073" lon="5.99557">
        <ele>780.247314</ele>
        <time>2012-01-25T09:51:11Z</time>
      </trkpt>
      <trkpt lat="44.2908" lon="5.99521">
        <ele>776.401855</ele>
        <time>2012-01-25T09:51:36Z</time>
      </trkpt>
      <trkpt lat="44.29087" lon="5.99493">
        <ele>775.44043</ele>
        <time>2012-01-25T09:51:56Z</time>
      </trkpt>
      <trkpt lat="44.29092" lon="5.9948">
        <ele>777.363281</ele>
        <time>2012-01-25T09:52:06Z</time>
      </trkpt>
      <trkpt lat="44.29102" lon="5.99449">
        <ele>777.84375</ele>
        <time>2012-01-25T09:52:29Z</time>
      </trkpt>
      <trkpt lat="44.29112" lon="5.99421">
        <ele>777.363281</ele>
        <time>2012-01-25T09:52:49Z</time>
      </trkpt>
      <trkpt lat="44.29124" lon="5.99394">
        <ele>776.401855</ele>
        <time>2012-01-25T09:53:10Z</time>
      </trkpt>
      <trkpt lat="44.29131" lon="5.99369">
        <ele>776.882568</ele>
        <time>2012-01-25T09:53:28Z</time>
      </trkpt>
      <trkpt lat="44.29134" lon="5.99355">
        <ele>777.84375</ele>
        <time>2012-01-25T09:53:39Z</time>
      </trkpt>
      <trkpt lat="44.29143" lon="5.99319">
        <ele>776.401855</ele>
        <time>2012-01-25T09:54:03Z</time>
      </trkpt>
      <trkpt lat="44.29143" lon="5.99316">
        <ele>777.363281</ele>
        <time>2012-01-25T09:54:05Z</time>
      </trkpt>
      <trkpt lat="44.29146" lon="5.99307">
        <ele>778.324463</ele>
        <time>2012-01-25T09:54:11Z</time>
      </trkpt>
      <trkpt lat="44.29147" lon="5.99303">
        <ele>776.401855</ele>
        <time>2012-01-25T09:54:13Z</time>
      </trkpt>
      <trkpt lat="44.2915" lon="5.99295">
        <ele>777.363281</ele>
        <time>2012-01-25T09:54:19Z</time>
      </trkpt>
      <trkpt lat="44.29161" lon="5.99285">
        <ele>777.363281</ele>
        <time>2012-01-25T09:54:37Z</time>
      </trkpt>
      <trkpt lat="44.29163" lon="5.99284">
        <ele>777.363281</ele>
        <time>2012-01-25T09:54:39Z</time>
      </trkpt>
      <trkpt lat="44.29166" lon="5.99282">
        <ele>777.363281</ele>
        <time>2012-01-25T09:54:43Z</time>
      </trkpt>
      <trkpt lat="44.29174" lon="5.99268">
        <ele>780.728027</ele>
        <time>2012-01-25T09:54:58Z</time>
      </trkpt>
      <trkpt lat="44.29192" lon="5.99276">
        <ele>783.131104</ele>
        <time>2012-01-25T09:55:20Z</time>
      </trkpt>
      <trkpt lat="44.29194" lon="5.99278">
        <ele>785.053955</ele>
        <time>2012-01-25T09:55:23Z</time>
      </trkpt>
      <trkpt lat="44.29203" lon="5.9929">
        <ele>786.49585</ele>
        <time>2012-01-25T09:55:39Z</time>
      </trkpt>
      <trkpt lat="44.29204" lon="5.99288">
        <ele>786.49585</ele>
        <time>2012-01-25T09:55:41Z</time>
      </trkpt>
      <trkpt lat="44.29213" lon="5.99278">
        <ele>786.976318</ele>
        <time>2012-01-25T09:56:01Z</time>
      </trkpt>
      <trkpt lat="44.29213" lon="5.99278">
        <ele>786.49585</ele>
        <time>2012-01-25T09:57:15Z</time>
      </trkpt>
      <trkpt lat="44.29214" lon="5.99278">
        <ele>786.49585</ele>
        <time>2012-01-25T09:57:28Z</time>
      </trkpt>
      <trkpt lat="44.29211" lon="5.99276">
        <ele>786.976318</ele>
        <time>2012-01-25T10:01:39Z</time>
      </trkpt>
      <trkpt lat="44.29214" lon="5.99276">
        <ele>785.053955</ele>
        <time>2012-01-25T10:04:41Z</time>
      </trkpt>
      <trkpt lat="44.29215" lon="5.99274">
        <ele>784.573242</ele>
        <time>2012-01-25T10:04:43Z</time>
      </trkpt>
      <trkpt lat="44.29217" lon="5.99269">
        <ele>786.015137</ele>
        <time>2012-01-25T10:04:46Z</time>
      </trkpt>
      <trkpt lat="44.29219" lon="5.99266">
        <ele>786.015137</ele>
        <time>2012-01-25T10:04:49Z</time>
      </trkpt>
      <trkpt lat="44.29223" lon="5.99263">
        <ele>786.49585</ele>
        <time>2012-01-25T10:04:53Z</time>
      </trkpt>
      <trkpt lat="44.29238" lon="5.9925">
        <ele>786.015137</ele>
        <time>2012-01-25T10:05:09Z</time>
      </trkpt>
      <trkpt lat="44.29247" lon="5.9924">
        <ele>786.015137</ele>
        <time>2012-01-25T10:05:23Z</time>
      </trkpt>
      <trkpt lat="44.29251" lon="5.99229">
        <ele>784.573242</ele>
        <time>2012-01-25T10:05:31Z</time>
      </trkpt>
      <trkpt lat="44.29256" lon="5.99224">
        <ele>783.611816</ele>
        <time>2012-01-25T10:05:39Z</time>
      </trkpt>
      <trkpt lat="44.29262" lon="5.99225">
        <ele>782.650635</ele>
        <time>2012-01-25T10:05:52Z</time>
      </trkpt>
      <trkpt lat="44.29262" lon="5.99229">
        <ele>782.650635</ele>
        <time>2012-01-25T10:06:00Z</time>
      </trkpt>
      <trkpt lat="44.29265" lon="5.99243">
        <ele>783.611816</ele>
        <time>2012-01-25T10:06:07Z</time>
      </trkpt>
      <trkpt lat="44.29273" lon="5.99264">
        <ele>782.650635</ele>
        <time>2012-01-25T10:06:21Z</time>
      </trkpt>
      <trkpt lat="44.2928" lon="5.99274">
        <ele>783.131104</ele>
        <time>2012-01-25T10:06:30Z</time>
      </trkpt>
      <trkpt lat="44.29294" lon="5.99274">
        <ele>784.092529</ele>
        <time>2012-01-25T10:06:46Z</time>
      </trkpt>
      <trkpt lat="44.29313" lon="5.99268">
        <ele>786.49585</ele>
        <time>2012-01-25T10:07:04Z</time>
      </trkpt>
      <trkpt lat="44.29331" lon="5.99271">
        <ele>788.89917</ele>
        <time>2012-01-25T10:07:22Z</time>
      </trkpt>
      <trkpt lat="44.29344" lon="5.99285">
        <ele>790.341064</ele>
        <time>2012-01-25T10:07:40Z</time>
      </trkpt>
      <trkpt lat="44.29357" lon="5.99296">
        <ele>791.302246</ele>
        <time>2012-01-25T10:07:57Z</time>
      </trkpt>
      <trkpt lat="44.29368" lon="5.99302">
        <ele>792.744385</ele>
        <time>2012-01-25T10:08:09Z</time>
      </trkpt>
      <trkpt lat="44.29369" lon="5.99304">
        <ele>795.147461</ele>
        <time>2012-01-25T10:08:11Z</time>
      </trkpt>
      <trkpt lat="44.29371" lon="5.99305">
        <ele>793.224854</ele>
        <time>2012-01-25T10:08:13Z</time>
      </trkpt>
      <trkpt lat="44.29381" lon="5.99301">
        <ele>796.589844</ele>
        <time>2012-01-25T10:08:31Z</time>
      </trkpt>
      <trkpt lat="44.29381" lon="5.993">
        <ele>796.589844</ele>
        <time>2012-01-25T10:08:32Z</time>
      </trkpt>
      <trkpt lat="44.29411" lon="5.99307">
        <ele>799.473633</ele>
        <time>2012-01-25T10:09:00Z</time>
      </trkpt>
      <trkpt lat="44.29432" lon="5.99336">
        <ele>801.39624</ele>
        <time>2012-01-25T10:09:24Z</time>
      </trkpt>
      <trkpt lat="44.29452" lon="5.99366">
        <ele>803.318848</ele>
        <time>2012-01-25T10:09:55Z</time>
      </trkpt>
      <trkpt lat="44.29461" lon="5.99385">
        <ele>805.722168</ele>
        <time>2012-01-25T10:10:07Z</time>
      </trkpt>
      <trkpt lat="44.29465" lon="5.99394">
        <ele>806.68335</ele>
        <time>2012-01-25T10:10:15Z</time>
      </trkpt>
      <trkpt lat="44.29471" lon="5.99419">
        <ele>806.202637</ele>
        <time>2012-01-25T10:10:34Z</time>
      </trkpt>
      <trkpt lat="44.29477" lon="5.99444">
        <ele>807.164063</ele>
        <time>2012-01-25T10:10:46Z</time>
      </trkpt>
      <trkpt lat="44.29482" lon="5.99465">
        <ele>808.605957</ele>
        <time>2012-01-25T10:11:04Z</time>
      </trkpt>
      <trkpt lat="44.29493" lon="5.99484">
        <ele>808.605957</ele>
        <time>2012-01-25T10:11:23Z</time>
      </trkpt>
      <trkpt lat="44.29507" lon="5.99504">
        <ele>809.567383</ele>
        <time>2012-01-25T10:11:45Z</time>
      </trkpt>
      <trkpt lat="44.2951" lon="5.99503">
        <ele>808.125488</ele>
        <time>2012-01-25T10:11:48Z</time>
      </trkpt>
      <trkpt lat="44.2953" lon="5.99506">
        <ele>808.125488</ele>
        <time>2012-01-25T10:12:09Z</time>
      </trkpt>
      <trkpt lat="44.29545" lon="5.99501">
        <ele>805.722168</ele>
        <time>2012-01-25T10:12:25Z</time>
      </trkpt>
      <trkpt lat="44.29557" lon="5.99494">
        <ele>807.164063</ele>
        <time>2012-01-25T10:12:38Z</time>
      </trkpt>
      <trkpt lat="44.2956" lon="5.99493">
        <ele>805.241455</ele>
        <time>2012-01-25T10:12:40Z</time>
      </trkpt>
      <trkpt lat="44.29572" lon="5.99493">
        <ele>804.760742</ele>
        <time>2012-01-25T10:12:55Z</time>
      </trkpt>
      <trkpt lat="44.2958" lon="5.99493">
        <ele>801.876953</ele>
        <time>2012-01-25T10:13:02Z</time>
      </trkpt>
      <trkpt lat="44.29597" lon="5.99496">
        <ele>800.915527</ele>
        <time>2012-01-25T10:13:22Z</time>
      </trkpt>
      <trkpt lat="44.29601" lon="5.99501">
        <ele>798.512207</ele>
        <time>2012-01-25T10:13:27Z</time>
      </trkpt>
      <trkpt lat="44.29603" lon="5.99502">
        <ele>799.954346</ele>
        <time>2012-01-25T10:13:29Z</time>
      </trkpt>
      <trkpt lat="44.29608" lon="5.99507">
        <ele>798.99292</ele>
        <time>2012-01-25T10:13:34Z</time>
      </trkpt>
      <trkpt lat="44.29619" lon="5.99509">
        <ele>797.551025</ele>
        <time>2012-01-25T10:13:40Z</time>
      </trkpt>
      <trkpt lat="44.29624" lon="5.99516">
        <ele>796.589844</ele>
        <time>2012-01-25T10:13:46Z</time>
      </trkpt>
      <trkpt lat="44.29628" lon="5.9952">
        <ele>795.628174</ele>
        <time>2012-01-25T10:13:50Z</time>
      </trkpt>
      <trkpt lat="44.29633" lon="5.99528">
        <ele>793.705566</ele>
        <time>2012-01-25T10:14:01Z</time>
      </trkpt>
      <trkpt lat="44.29657" lon="5.99552">
        <ele>789.860352</ele>
        <time>2012-01-25T10:14:25Z</time>
      </trkpt>
      <trkpt lat="44.29684" lon="5.99584">
        <ele>788.89917</ele>
        <time>2012-01-25T10:14:52Z</time>
      </trkpt>
      <trkpt lat="44.297" lon="5.99612">
        <ele>788.89917</ele>
        <time>2012-01-25T10:15:12Z</time>
      </trkpt>
      <trkpt lat="44.29713" lon="5.99622">
        <ele>788.89917</ele>
        <time>2012-01-25T10:15:25Z</time>
      </trkpt>
      <trkpt lat="44.29725" lon="5.99623">
        <ele>788.418457</ele>
        <time>2012-01-25T10:15:38Z</time>
      </trkpt>
      <trkpt lat="44.29734" lon="5.99622">
        <ele>787.937744</ele>
        <time>2012-01-25T10:15:44Z</time>
      </trkpt>
      <trkpt lat="44.29741" lon="5.9962">
        <ele>787.937744</ele>
        <time>2012-01-25T10:15:51Z</time>
      </trkpt>
      <trkpt lat="44.29754" lon="5.9964">
        <ele>787.937744</ele>
        <time>2012-01-25T10:16:07Z</time>
      </trkpt>
      <trkpt lat="44.29768" lon="5.99642">
        <ele>787.937744</ele>
        <time>2012-01-25T10:16:22Z</time>
      </trkpt>
      <trkpt lat="44.29784" lon="5.99652">
        <ele>787.457031</ele>
        <time>2012-01-25T10:16:38Z</time>
      </trkpt>
      <trkpt lat="44.29806" lon="5.99665">
        <ele>786.49585</ele>
        <time>2012-01-25T10:17:01Z</time>
      </trkpt>
      <trkpt lat="44.29835" lon="5.99678">
        <ele>788.89917</ele>
        <time>2012-01-25T10:17:27Z</time>
      </trkpt>
      <trkpt lat="44.29858" lon="5.99662">
        <ele>791.302246</ele>
        <time>2012-01-25T10:17:52Z</time>
      </trkpt>
      <trkpt lat="44.29879" lon="5.99661">
        <ele>794.186279</ele>
        <time>2012-01-25T10:18:18Z</time>
      </trkpt>
      <trkpt lat="44.29905" lon="5.99687">
        <ele>797.070313</ele>
        <time>2012-01-25T10:18:49Z</time>
      </trkpt>
      <trkpt lat="44.29927" lon="5.9972">
        <ele>800.435059</ele>
        <time>2012-01-25T10:19:20Z</time>
      </trkpt>
      <trkpt lat="44.29933" lon="5.99757">
        <ele>803.799561</ele>
        <time>2012-01-25T10:19:47Z</time>
      </trkpt>
      <trkpt lat="44.29943" lon="5.99789">
        <ele>806.68335</ele>
        <time>2012-01-25T10:20:18Z</time>
      </trkpt>
      <trkpt lat="44.29961" lon="5.99819">
        <ele>809.567383</ele>
        <time>2012-01-25T10:20:47Z</time>
      </trkpt>
      <trkpt lat="44.29969" lon="5.99841">
        <ele>811.970703</ele>
        <time>2012-01-25T10:21:08Z</time>
      </trkpt>
      <trkpt lat="44.2998" lon="5.99848">
        <ele>812.451416</ele>
        <time>2012-01-25T10:21:21Z</time>
      </trkpt>
      <trkpt lat="44.29995" lon="5.99843">
        <ele>814.854736</ele>
        <time>2012-01-25T10:21:42Z</time>
      </trkpt>
      <trkpt lat="44.30021" lon="5.99837">
        <ele>815.816162</ele>
        <time>2012-01-25T10:22:06Z</time>
      </trkpt>
      <trkpt lat="44.30032" lon="5.99838">
        <ele>818.699951</ele>
        <time>2012-01-25T10:22:19Z</time>
      </trkpt>
      <trkpt lat="44.30045" lon="5.99842">
        <ele>819.180664</ele>
        <time>2012-01-25T10:22:37Z</time>
      </trkpt>
      <trkpt lat="44.30046" lon="5.99843">
        <ele>820.622559</ele>
        <time>2012-01-25T10:22:39Z</time>
      </trkpt>
      <trkpt lat="44.30077" lon="5.99856">
        <ele>822.545166</ele>
        <time>2012-01-25T10:23:05Z</time>
      </trkpt>
      <trkpt lat="44.30109" lon="5.99835">
        <ele>824.467773</ele>
        <time>2012-01-25T10:23:38Z</time>
      </trkpt>
      <trkpt lat="44.30131" lon="5.9985">
        <ele>826.390381</ele>
        <time>2012-01-25T10:24:05Z</time>
      </trkpt>
      <trkpt lat="44.30145" lon="5.99877">
        <ele>826.871094</ele>
        <time>2012-01-25T10:24:27Z</time>
      </trkpt>
      <trkpt lat="44.3015" lon="5.99896">
        <ele>829.274414</ele>
        <time>2012-01-25T10:24:50Z</time>
      </trkpt>
      <trkpt lat="44.30151" lon="5.99903">
        <ele>829.274414</ele>
        <time>2012-01-25T10:25:32Z</time>
      </trkpt>
      <trkpt lat="44.30153" lon="5.9992">
        <ele>831.197266</ele>
        <time>2012-01-25T10:25:49Z</time>
      </trkpt>
      <trkpt lat="44.30155" lon="5.9994">
        <ele>833.600342</ele>
        <time>2012-01-25T10:26:05Z</time>
      </trkpt>
      <trkpt lat="44.30178" lon="5.9997">
        <ele>836.003662</ele>
        <time>2012-01-25T10:26:36Z</time>
      </trkpt>
      <trkpt lat="44.30195" lon="5.99996">
        <ele>838.887695</ele>
        <time>2012-01-25T10:27:02Z</time>
      </trkpt>
      <trkpt lat="44.30209" lon="6.00025">
        <ele>842.73291</ele>
        <time>2012-01-25T10:27:28Z</time>
      </trkpt>
      <trkpt lat="44.30219" lon="6.00056">
        <ele>845.616943</ele>
        <time>2012-01-25T10:27:57Z</time>
      </trkpt>
      <trkpt lat="44.30235" lon="6.00082">
        <ele>847.539551</ele>
        <time>2012-01-25T10:28:22Z</time>
      </trkpt>
      <trkpt lat="44.30231" lon="6.00125">
        <ele>850.423584</ele>
        <time>2012-01-25T10:28:51Z</time>
      </trkpt>
      <trkpt lat="44.3022" lon="6.00164">
        <ele>853.307373</ele>
        <time>2012-01-25T10:29:19Z</time>
      </trkpt>
      <trkpt lat="44.30235" lon="6.002">
        <ele>856.191162</ele>
        <time>2012-01-25T10:29:51Z</time>
      </trkpt>
      <trkpt lat="44.30259" lon="6.00229">
        <ele>858.114014</ele>
        <time>2012-01-25T10:30:22Z</time>
      </trkpt>
      <trkpt lat="44.30262" lon="6.00234">
        <ele>859.075195</ele>
        <time>2012-01-25T10:30:26Z</time>
      </trkpt>
      <trkpt lat="44.30268" lon="6.00247">
        <ele>859.075195</ele>
        <time>2012-01-25T10:30:38Z</time>
      </trkpt>
      <trkpt lat="44.30263" lon="6.00268">
        <ele>860.998047</ele>
        <time>2012-01-25T10:30:57Z</time>
      </trkpt>
      <trkpt lat="44.30256" lon="6.00285">
        <ele>862.439941</ele>
        <time>2012-01-25T10:31:12Z</time>
      </trkpt>
      <trkpt lat="44.30248" lon="6.00304">
        <ele>863.881836</ele>
        <time>2012-01-25T10:31:28Z</time>
      </trkpt>
      <trkpt lat="44.30244" lon="6.00321">
        <ele>865.323975</ele>
        <time>2012-01-25T10:31:44Z</time>
      </trkpt>
      <trkpt lat="44.30245" lon="6.00341">
        <ele>867.727051</ele>
        <time>2012-01-25T10:31:59Z</time>
      </trkpt>
      <trkpt lat="44.30246" lon="6.00356">
        <ele>868.688477</ele>
        <time>2012-01-25T10:32:11Z</time>
      </trkpt>
      <trkpt lat="44.30249" lon="6.00372">
        <ele>870.130371</ele>
        <time>2012-01-25T10:32:24Z</time>
      </trkpt>
      <trkpt lat="44.30251" lon="6.00374">
        <ele>870.130371</ele>
        <time>2012-01-25T10:32:27Z</time>
      </trkpt>
      <trkpt lat="44.3026" lon="6.0039">
        <ele>872.052979</ele>
        <time>2012-01-25T10:32:46Z</time>
      </trkpt>
      <trkpt lat="44.30262" lon="6.00392">
        <ele>872.052979</ele>
        <time>2012-01-25T10:32:49Z</time>
      </trkpt>
      <trkpt lat="44.30269" lon="6.00403">
        <ele>872.533691</ele>
        <time>2012-01-25T10:33:00Z</time>
      </trkpt>
      <trkpt lat="44.30274" lon="6.00424">
        <ele>874.937012</ele>
        <time>2012-01-25T10:33:16Z</time>
      </trkpt>
      <trkpt lat="44.30275" lon="6.00432">
        <ele>874.456299</ele>
        <time>2012-01-25T10:33:23Z</time>
      </trkpt>
      <trkpt lat="44.30271" lon="6.00452">
        <ele>875.898193</ele>
        <time>2012-01-25T10:33:42Z</time>
      </trkpt>
      <trkpt lat="44.30269" lon="6.00467">
        <ele>877.340576</ele>
        <time>2012-01-25T10:33:56Z</time>
      </trkpt>
      <trkpt lat="44.3027" lon="6.00474">
        <ele>877.821045</ele>
        <time>2012-01-25T10:34:01Z</time>
      </trkpt>
      <trkpt lat="44.30276" lon="6.00492">
        <ele>877.821045</ele>
        <time>2012-01-25T10:34:16Z</time>
      </trkpt>
      <trkpt lat="44.30285" lon="6.0051">
        <ele>878.782471</ele>
        <time>2012-01-25T10:34:33Z</time>
      </trkpt>
      <trkpt lat="44.30295" lon="6.00534">
        <ele>880.705078</ele>
        <time>2012-01-25T10:34:52Z</time>
      </trkpt>
      <trkpt lat="44.30301" lon="6.00563">
        <ele>883.108154</ele>
        <time>2012-01-25T10:35:14Z</time>
      </trkpt>
      <trkpt lat="44.30304" lon="6.00568">
        <ele>883.588867</ele>
        <time>2012-01-25T10:35:24Z</time>
      </trkpt>
      <trkpt lat="44.30304" lon="6.00582">
        <ele>885.031006</ele>
        <time>2012-01-25T10:35:41Z</time>
      </trkpt>
      <trkpt lat="44.30298" lon="6.00615">
        <ele>886.4729</ele>
        <time>2012-01-25T10:36:11Z</time>
      </trkpt>
      <trkpt lat="44.30309" lon="6.00633">
        <ele>887.914795</ele>
        <time>2012-01-25T10:36:31Z</time>
      </trkpt>
      <trkpt lat="44.30323" lon="6.00643">
        <ele>889.837402</ele>
        <time>2012-01-25T10:36:52Z</time>
      </trkpt>
      <trkpt lat="44.30337" lon="6.00641">
        <ele>890.798584</ele>
        <time>2012-01-25T10:37:08Z</time>
      </trkpt>
      <trkpt lat="44.30348" lon="6.00633">
        <ele>891.76001</ele>
        <time>2012-01-25T10:37:27Z</time>
      </trkpt>
      <trkpt lat="44.30374" lon="6.00632">
        <ele>893.682861</ele>
        <time>2012-01-25T10:37:53Z</time>
      </trkpt>
      <trkpt lat="44.30377" lon="6.00633">
        <ele>896.086182</ele>
        <time>2012-01-25T10:37:59Z</time>
      </trkpt>
      <trkpt lat="44.30397" lon="6.00634">
        <ele>896.086182</ele>
        <time>2012-01-25T10:38:14Z</time>
      </trkpt>
      <trkpt lat="44.30409" lon="6.00635">
        <ele>898.008789</ele>
        <time>2012-01-25T10:38:32Z</time>
      </trkpt>
      <trkpt lat="44.30423" lon="6.00632">
        <ele>898.969971</ele>
        <time>2012-01-25T10:38:47Z</time>
      </trkpt>
      <trkpt lat="44.30443" lon="6.00637">
        <ele>900.892578</ele>
        <time>2012-01-25T10:39:11Z</time>
      </trkpt>
      <trkpt lat="44.30472" lon="6.00636">
        <ele>901.373291</ele>
        <time>2012-01-25T10:39:39Z</time>
      </trkpt>
      <trkpt lat="44.30486" lon="6.0065">
        <ele>901.854004</ele>
        <time>2012-01-25T10:40:03Z</time>
      </trkpt>
      <trkpt lat="44.30512" lon="6.00652">
        <ele>901.373291</ele>
        <time>2012-01-25T10:40:26Z</time>
      </trkpt>
      <trkpt lat="44.30522" lon="6.00655">
        <ele>902.334473</ele>
        <time>2012-01-25T10:40:42Z</time>
      </trkpt>
      <trkpt lat="44.30555" lon="6.00648">
        <ele>904.257324</ele>
        <time>2012-01-25T10:41:09Z</time>
      </trkpt>
      <trkpt lat="44.30572" lon="6.00671">
        <ele>906.6604</ele>
        <time>2012-01-25T10:41:29Z</time>
      </trkpt>
      <trkpt lat="44.30579" lon="6.00677">
        <ele>906.6604</ele>
        <time>2012-01-25T10:41:35Z</time>
      </trkpt>
      <trkpt lat="44.30586" lon="6.00669">
        <ele>907.621826</ele>
        <time>2012-01-25T10:41:38Z</time>
      </trkpt>
      <trkpt lat="44.30586" lon="6.0067">
        <ele>907.621826</ele>
        <time>2012-01-25T10:41:39Z</time>
      </trkpt>
      <trkpt lat="44.30601" lon="6.00668">
        <ele>908.583252</ele>
        <time>2012-01-25T10:41:53Z</time>
      </trkpt>
      <trkpt lat="44.30619" lon="6.0066">
        <ele>909.063965</ele>
        <time>2012-01-25T10:42:11Z</time>
      </trkpt>
      <trkpt lat="44.30641" lon="6.00654">
        <ele>910.025146</ele>
        <time>2012-01-25T10:42:27Z</time>
      </trkpt>
      <trkpt lat="44.30656" lon="6.0065">
        <ele>911.947998</ele>
        <time>2012-01-25T10:42:41Z</time>
      </trkpt>
      <trkpt lat="44.30663" lon="6.00647">
        <ele>911.467285</ele>
        <time>2012-01-25T10:42:47Z</time>
      </trkpt>
      <trkpt lat="44.30667" lon="6.00644">
        <ele>911.947998</ele>
        <time>2012-01-25T10:42:51Z</time>
      </trkpt>
      <trkpt lat="44.30673" lon="6.0064">
        <ele>912.90918</ele>
        <time>2012-01-25T10:43:01Z</time>
      </trkpt>
      <trkpt lat="44.30679" lon="6.00635">
        <ele>912.428467</ele>
        <time>2012-01-25T10:43:08Z</time>
      </trkpt>
      <trkpt lat="44.30688" lon="6.00632">
        <ele>913.389893</ele>
        <time>2012-01-25T10:43:20Z</time>
      </trkpt>
      <trkpt lat="44.30699" lon="6.00644">
        <ele>914.831787</ele>
        <time>2012-01-25T10:43:32Z</time>
      </trkpt>
      <trkpt lat="44.307" lon="6.00646">
        <ele>914.351074</ele>
        <time>2012-01-25T10:43:33Z</time>
      </trkpt>
      <trkpt lat="44.30712" lon="6.00661">
        <ele>915.3125</ele>
        <time>2012-01-25T10:43:45Z</time>
      </trkpt>
      <trkpt lat="44.30724" lon="6.00665">
        <ele>916.273682</ele>
        <time>2012-01-25T10:43:57Z</time>
      </trkpt>
      <trkpt lat="44.30729" lon="6.00666">
        <ele>916.754395</ele>
        <time>2012-01-25T10:44:02Z</time>
      </trkpt>
      <trkpt lat="44.30739" lon="6.00659">
        <ele>918.196289</ele>
        <time>2012-01-25T10:44:16Z</time>
      </trkpt>
      <trkpt lat="44.30741" lon="6.00656">
        <ele>918.196289</ele>
        <time>2012-01-25T10:44:21Z</time>
      </trkpt>
      <trkpt lat="44.30745" lon="6.0065">
        <ele>919.157715</ele>
        <time>2012-01-25T10:44:30Z</time>
      </trkpt>
      <trkpt lat="44.30749" lon="6.00646">
        <ele>919.157715</ele>
        <time>2012-01-25T10:44:34Z</time>
      </trkpt>
      <trkpt lat="44.3076" lon="6.00637">
        <ele>920.599609</ele>
        <time>2012-01-25T10:44:47Z</time>
      </trkpt>
      <trkpt lat="44.30761" lon="6.00634">
        <ele>920.599609</ele>
        <time>2012-01-25T10:44:51Z</time>
      </trkpt>
      <trkpt lat="44.30775" lon="6.00621">
        <ele>921.560791</ele>
        <time>2012-01-25T10:45:05Z</time>
      </trkpt>
      <trkpt lat="44.30788" lon="6.0061">
        <ele>922.522217</ele>
        <time>2012-01-25T10:45:19Z</time>
      </trkpt>
      <trkpt lat="44.30806" lon="6.00624">
        <ele>923.483643</ele>
        <time>2012-01-25T10:45:37Z</time>
      </trkpt>
      <trkpt lat="44.30818" lon="6.00638">
        <ele>924.445068</ele>
        <time>2012-01-25T10:45:50Z</time>
      </trkpt>
      <trkpt lat="44.30838" lon="6.00653">
        <ele>923.964111</ele>
        <time>2012-01-25T10:46:05Z</time>
      </trkpt>
      <trkpt lat="44.30838" lon="6.00657">
        <ele>926.848389</ele>
        <time>2012-01-25T10:46:08Z</time>
      </trkpt>
      <trkpt lat="44.30841" lon="6.00663">
        <ele>925.886963</ele>
        <time>2012-01-25T10:46:14Z</time>
      </trkpt>
      <trkpt lat="44.30847" lon="6.0068">
        <ele>927.80957</ele>
        <time>2012-01-25T10:46:30Z</time>
      </trkpt>
      <trkpt lat="44.30847" lon="6.00684">
        <ele>927.329102</ele>
        <time>2012-01-25T10:46:32Z</time>
      </trkpt>
      <trkpt lat="44.30859" lon="6.00711">
        <ele>929.251465</ele>
        <time>2012-01-25T10:46:54Z</time>
      </trkpt>
      <trkpt lat="44.3087" lon="6.0073">
        <ele>930.693604</ele>
        <time>2012-01-25T10:47:12Z</time>
      </trkpt>
      <trkpt lat="44.30875" lon="6.00732">
        <ele>931.174316</ele>
        <time>2012-01-25T10:47:25Z</time>
      </trkpt>
      <trkpt lat="44.30887" lon="6.00724">
        <ele>930.693604</ele>
        <time>2012-01-25T10:47:40Z</time>
      </trkpt>
      <trkpt lat="44.30889" lon="6.00724">
        <ele>929.732178</ele>
        <time>2012-01-25T10:47:43Z</time>
      </trkpt>
      <trkpt lat="44.30893" lon="6.00724">
        <ele>929.732178</ele>
        <time>2012-01-25T10:47:48Z</time>
      </trkpt>
      <trkpt lat="44.30899" lon="6.00723">
        <ele>929.251465</ele>
        <time>2012-01-25T10:47:54Z</time>
      </trkpt>
      <trkpt lat="44.30909" lon="6.00721">
        <ele>928.770996</ele>
        <time>2012-01-25T10:48:05Z</time>
      </trkpt>
      <trkpt lat="44.30916" lon="6.00722">
        <ele>927.80957</ele>
        <time>2012-01-25T10:48:18Z</time>
      </trkpt>
      <trkpt lat="44.30925" lon="6.00719">
        <ele>927.80957</ele>
        <time>2012-01-25T10:48:32Z</time>
      </trkpt>
      <trkpt lat="44.30948" lon="6.00724">
        <ele>926.848389</ele>
        <time>2012-01-25T10:48:48Z</time>
      </trkpt>
      <trkpt lat="44.3096" lon="6.00739">
        <ele>926.367676</ele>
        <time>2012-01-25T10:49:04Z</time>
      </trkpt>
      <trkpt lat="44.30966" lon="6.00764">
        <ele>926.367676</ele>
        <time>2012-01-25T10:49:23Z</time>
      </trkpt>
      <trkpt lat="44.30973" lon="6.00787">
        <ele>924.925781</ele>
        <time>2012-01-25T10:49:48Z</time>
      </trkpt>
      <trkpt lat="44.30976" lon="6.00794">
        <ele>924.925781</ele>
        <time>2012-01-25T10:50:11Z</time>
      </trkpt>
      <trkpt lat="44.30977" lon="6.00812">
        <ele>923.964111</ele>
        <time>2012-01-25T10:50:20Z</time>
      </trkpt>
      <trkpt lat="44.30979" lon="6.00816">
        <ele>923.483643</ele>
        <time>2012-01-25T10:50:22Z</time>
      </trkpt>
      <trkpt lat="44.30983" lon="6.0082">
        <ele>923.00293</ele>
        <time>2012-01-25T10:50:26Z</time>
      </trkpt>
      <trkpt lat="44.30986" lon="6.00821">
        <ele>923.00293</ele>
        <time>2012-01-25T10:50:28Z</time>
      </trkpt>
      <trkpt lat="44.30986" lon="6.00824">
        <ele>923.483643</ele>
        <time>2012-01-25T10:50:30Z</time>
      </trkpt>
      <trkpt lat="44.30995" lon="6.00832">
        <ele>921.080322</ele>
        <time>2012-01-25T10:50:39Z</time>
      </trkpt>
      <trkpt lat="44.31008" lon="6.00842">
        <ele>920.118896</ele>
        <time>2012-01-25T10:50:55Z</time>
      </trkpt>
      <trkpt lat="44.31017" lon="6.00852">
        <ele>919.638428</ele>
        <time>2012-01-25T10:51:06Z</time>
      </trkpt>
      <trkpt lat="44.3103" lon="6.00866">
        <ele>918.196289</ele>
        <time>2012-01-25T10:51:19Z</time>
      </trkpt>
      <trkpt lat="44.31032" lon="6.00881">
        <ele>917.715576</ele>
        <time>2012-01-25T10:51:30Z</time>
      </trkpt>
      <trkpt lat="44.31023" lon="6.00904">
        <ele>916.273682</ele>
        <time>2012-01-25T10:51:44Z</time>
      </trkpt>
      <trkpt lat="44.31023" lon="6.00908">
        <ele>915.793213</ele>
        <time>2012-01-25T10:51:47Z</time>
      </trkpt>
      <trkpt lat="44.31022" lon="6.0091">
        <ele>915.3125</ele>
        <time>2012-01-25T10:51:49Z</time>
      </trkpt>
      <trkpt lat="44.31022" lon="6.00915">
        <ele>915.3125</ele>
        <time>2012-01-25T10:51:52Z</time>
      </trkpt>
      <trkpt lat="44.31027" lon="6.00929">
        <ele>914.831787</ele>
        <time>2012-01-25T10:52:03Z</time>
      </trkpt>
      <trkpt lat="44.31031" lon="6.00938">
        <ele>914.351074</ele>
        <time>2012-01-25T10:52:10Z</time>
      </trkpt>
      <trkpt lat="44.31045" lon="6.00954">
        <ele>912.90918</ele>
        <time>2012-01-25T10:52:26Z</time>
      </trkpt>
      <trkpt lat="44.31051" lon="6.00964">
        <ele>913.389893</ele>
        <time>2012-01-25T10:52:44Z</time>
      </trkpt>
      <trkpt lat="44.31054" lon="6.00959">
        <ele>913.870361</ele>
        <time>2012-01-25T10:53:16Z</time>
      </trkpt>
      <trkpt lat="44.31061" lon="6.00957">
        <ele>916.754395</ele>
        <time>2012-01-25T10:53:35Z</time>
      </trkpt>
      <trkpt lat="44.31052" lon="6.00966">
        <ele>915.793213</ele>
        <time>2012-01-25T10:54:03Z</time>
      </trkpt>
      <trkpt lat="44.31047" lon="6.00968">
        <ele>912.428467</ele>
        <time>2012-01-25T10:54:29Z</time>
      </trkpt>
      <trkpt lat="44.31043" lon="6.00987">
        <ele>912.428467</ele>
        <time>2012-01-25T10:54:43Z</time>
      </trkpt>
      <trkpt lat="44.3104" lon="6.01001">
        <ele>912.428467</ele>
        <time>2012-01-25T10:55:01Z</time>
      </trkpt>
      <trkpt lat="44.31039" lon="6.01007">
        <ele>911.947998</ele>
        <time>2012-01-25T10:55:06Z</time>
      </trkpt>
      <trkpt lat="44.31037" lon="6.01034">
        <ele>912.90918</ele>
        <time>2012-01-25T10:55:22Z</time>
      </trkpt>
      <trkpt lat="44.31041" lon="6.01056">
        <ele>911.947998</ele>
        <time>2012-01-25T10:55:41Z</time>
      </trkpt>
      <trkpt lat="44.31053" lon="6.01061">
        <ele>910.505859</ele>
        <time>2012-01-25T10:55:55Z</time>
      </trkpt>
      <trkpt lat="44.31064" lon="6.01078">
        <ele>909.544678</ele>
        <time>2012-01-25T10:56:07Z</time>
      </trkpt>
      <trkpt lat="44.31054" lon="6.01106">
        <ele>908.583252</ele>
        <time>2012-01-25T10:56:28Z</time>
      </trkpt>
      <trkpt lat="44.31035" lon="6.01129">
        <ele>908.102783</ele>
        <time>2012-01-25T10:56:42Z</time>
      </trkpt>
      <trkpt lat="44.31026" lon="6.01135">
        <ele>907.141113</ele>
        <time>2012-01-25T10:56:49Z</time>
      </trkpt>
      <trkpt lat="44.31024" lon="6.01136">
        <ele>908.102783</ele>
        <time>2012-01-25T10:56:51Z</time>
      </trkpt>
      <trkpt lat="44.31023" lon="6.01141">
        <ele>907.141113</ele>
        <time>2012-01-25T10:56:55Z</time>
      </trkpt>
      <trkpt lat="44.3102" lon="6.01148">
        <ele>907.141113</ele>
        <time>2012-01-25T10:56:59Z</time>
      </trkpt>
      <trkpt lat="44.31015" lon="6.01154">
        <ele>908.102783</ele>
        <time>2012-01-25T10:57:10Z</time>
      </trkpt>
      <trkpt lat="44.31015" lon="6.01156">
        <ele>906.6604</ele>
        <time>2012-01-25T10:57:12Z</time>
      </trkpt>
      <trkpt lat="44.31022" lon="6.01172">
        <ele>905.699219</ele>
        <time>2012-01-25T10:57:25Z</time>
      </trkpt>
      <trkpt lat="44.3103" lon="6.01189">
        <ele>905.218506</ele>
        <time>2012-01-25T10:57:35Z</time>
      </trkpt>
      <trkpt lat="44.31036" lon="6.01212">
        <ele>904.737793</ele>
        <time>2012-01-25T10:57:49Z</time>
      </trkpt>
      <trkpt lat="44.31036" lon="6.01216">
        <ele>904.737793</ele>
        <time>2012-01-25T10:57:54Z</time>
      </trkpt>
      <trkpt lat="44.3103" lon="6.01218">
        <ele>904.737793</ele>
        <time>2012-01-25T10:58:00Z</time>
      </trkpt>
      <trkpt lat="44.31023" lon="6.0124">
        <ele>904.257324</ele>
        <time>2012-01-25T10:58:14Z</time>
      </trkpt>
      <trkpt lat="44.31013" lon="6.01265">
        <ele>903.295898</ele>
        <time>2012-01-25T10:58:28Z</time>
      </trkpt>
      <trkpt lat="44.31009" lon="6.0129">
        <ele>903.295898</ele>
        <time>2012-01-25T10:58:43Z</time>
      </trkpt>
      <trkpt lat="44.31008" lon="6.01298">
        <ele>903.295898</ele>
        <time>2012-01-25T10:58:48Z</time>
      </trkpt>
      <trkpt lat="44.31003" lon="6.01315">
        <ele>903.776611</ele>
        <time>2012-01-25T10:59:02Z</time>
      </trkpt>
      <trkpt lat="44.30996" lon="6.0135">
        <ele>904.257324</ele>
        <time>2012-01-25T10:59:17Z</time>
      </trkpt>
      <trkpt lat="44.30981" lon="6.01379">
        <ele>904.737793</ele>
        <time>2012-01-25T10:59:38Z</time>
      </trkpt>
      <trkpt lat="44.30961" lon="6.01409">
        <ele>906.6604</ele>
        <time>2012-01-25T11:00:09Z</time>
      </trkpt>
      <trkpt lat="44.30943" lon="6.01419">
        <ele>907.621826</ele>
        <time>2012-01-25T11:00:19Z</time>
      </trkpt>
      <trkpt lat="44.30933" lon="6.01446">
        <ele>910.025146</ele>
        <time>2012-01-25T11:00:43Z</time>
      </trkpt>
      <trkpt lat="44.30928" lon="6.01465">
        <ele>911.467285</ele>
        <time>2012-01-25T11:01:03Z</time>
      </trkpt>
      <trkpt lat="44.30918" lon="6.0148">
        <ele>911.467285</ele>
        <time>2012-01-25T11:01:17Z</time>
      </trkpt>
      <trkpt lat="44.30909" lon="6.01487">
        <ele>911.947998</ele>
        <time>2012-01-25T11:01:25Z</time>
      </trkpt>
      <trkpt lat="44.30875" lon="6.015">
        <ele>914.351074</ele>
        <time>2012-01-25T11:01:55Z</time>
      </trkpt>
      <trkpt lat="44.30845" lon="6.01499">
        <ele>917.715576</ele>
        <time>2012-01-25T11:02:26Z</time>
      </trkpt>
      <trkpt lat="44.30819" lon="6.01485">
        <ele>919.638428</ele>
        <time>2012-01-25T11:02:56Z</time>
      </trkpt>
      <trkpt lat="44.30788" lon="6.01468">
        <ele>921.080322</ele>
        <time>2012-01-25T11:03:19Z</time>
      </trkpt>
      <trkpt lat="44.30789" lon="6.01468">
        <ele>921.080322</ele>
        <time>2012-01-25T11:03:20Z</time>
      </trkpt>
      <trkpt lat="44.30779" lon="6.01472">
        <ele>921.080322</ele>
        <time>2012-01-25T11:03:34Z</time>
      </trkpt>
      <trkpt lat="44.30775" lon="6.01472">
        <ele>923.00293</ele>
        <time>2012-01-25T11:03:37Z</time>
      </trkpt>
      <trkpt lat="44.30757" lon="6.01473">
        <ele>922.041504</ele>
        <time>2012-01-25T11:03:53Z</time>
      </trkpt>
      <trkpt lat="44.30737" lon="6.01479">
        <ele>922.041504</ele>
        <time>2012-01-25T11:04:12Z</time>
      </trkpt>
      <trkpt lat="44.30723" lon="6.01484">
        <ele>921.560791</ele>
        <time>2012-01-25T11:04:26Z</time>
      </trkpt>
      <trkpt lat="44.30706" lon="6.01498">
        <ele>922.041504</ele>
        <time>2012-01-25T11:04:46Z</time>
      </trkpt>
      <trkpt lat="44.30697" lon="6.01503">
        <ele>923.00293</ele>
        <time>2012-01-25T11:04:55Z</time>
      </trkpt>
      <trkpt lat="44.30696" lon="6.01504">
        <ele>922.041504</ele>
        <time>2012-01-25T11:04:57Z</time>
      </trkpt>
      <trkpt lat="44.30689" lon="6.01512">
        <ele>922.041504</ele>
        <time>2012-01-25T11:05:05Z</time>
      </trkpt>
      <trkpt lat="44.30686" lon="6.01519">
        <ele>922.041504</ele>
        <time>2012-01-25T11:05:10Z</time>
      </trkpt>
      <trkpt lat="44.30686" lon="6.01541">
        <ele>921.560791</ele>
        <time>2012-01-25T11:05:23Z</time>
      </trkpt>
      <trkpt lat="44.30685" lon="6.01567">
        <ele>920.599609</ele>
        <time>2012-01-25T11:05:38Z</time>
      </trkpt>
      <trkpt lat="44.3068" lon="6.01587">
        <ele>920.118896</ele>
        <time>2012-01-25T11:05:53Z</time>
      </trkpt>
      <trkpt lat="44.30679" lon="6.01589">
        <ele>920.118896</ele>
        <time>2012-01-25T11:05:54Z</time>
      </trkpt>
      <trkpt lat="44.30675" lon="6.01617">
        <ele>919.157715</ele>
        <time>2012-01-25T11:06:10Z</time>
      </trkpt>
      <trkpt lat="44.30674" lon="6.01619">
        <ele>919.157715</ele>
        <time>2012-01-25T11:06:12Z</time>
      </trkpt>
      <trkpt lat="44.30674" lon="6.01626">
        <ele>919.157715</ele>
        <time>2012-01-25T11:06:15Z</time>
      </trkpt>
      <trkpt lat="44.30673" lon="6.01632">
        <ele>919.157715</ele>
        <time>2012-01-25T11:06:19Z</time>
      </trkpt>
      <trkpt lat="44.30671" lon="6.01643">
        <ele>918.196289</ele>
        <time>2012-01-25T11:06:25Z</time>
      </trkpt>
      <trkpt lat="44.30661" lon="6.01654">
        <ele>918.196289</ele>
        <time>2012-01-25T11:06:36Z</time>
      </trkpt>
      <trkpt lat="44.30652" lon="6.01655">
        <ele>917.715576</ele>
        <time>2012-01-25T11:06:44Z</time>
      </trkpt>
      <trkpt lat="44.30626" lon="6.01658">
        <ele>916.273682</ele>
        <time>2012-01-25T11:07:08Z</time>
      </trkpt>
      <trkpt lat="44.30619" lon="6.0166">
        <ele>916.273682</ele>
        <time>2012-01-25T11:07:15Z</time>
      </trkpt>
      <trkpt lat="44.30614" lon="6.01659">
        <ele>916.273682</ele>
        <time>2012-01-25T11:07:19Z</time>
      </trkpt>
      <trkpt lat="44.30603" lon="6.01661">
        <ele>915.3125</ele>
        <time>2012-01-25T11:07:30Z</time>
      </trkpt>
      <trkpt lat="44.30588" lon="6.01665">
        <ele>914.831787</ele>
        <time>2012-01-25T11:07:43Z</time>
      </trkpt>
      <trkpt lat="44.30576" lon="6.01671">
        <ele>914.351074</ele>
        <time>2012-01-25T11:07:56Z</time>
      </trkpt>
      <trkpt lat="44.30561" lon="6.01693">
        <ele>913.870361</ele>
        <time>2012-01-25T11:08:17Z</time>
      </trkpt>
      <trkpt lat="44.30561" lon="6.01717">
        <ele>913.389893</ele>
        <time>2012-01-25T11:08:32Z</time>
      </trkpt>
      <trkpt lat="44.30562" lon="6.01744">
        <ele>912.90918</ele>
        <time>2012-01-25T11:08:48Z</time>
      </trkpt>
      <trkpt lat="44.30561" lon="6.01765">
        <ele>911.947998</ele>
        <time>2012-01-25T11:09:02Z</time>
      </trkpt>
      <trkpt lat="44.30561" lon="6.01777">
        <ele>911.467285</ele>
        <time>2012-01-25T11:09:10Z</time>
      </trkpt>
      <trkpt lat="44.30569" lon="6.0181">
        <ele>910.505859</ele>
        <time>2012-01-25T11:09:31Z</time>
      </trkpt>
      <trkpt lat="44.3057" lon="6.01811">
        <ele>910.505859</ele>
        <time>2012-01-25T11:09:32Z</time>
      </trkpt>
      <trkpt lat="44.3057" lon="6.01818">
        <ele>910.505859</ele>
        <time>2012-01-25T11:09:36Z</time>
      </trkpt>
      <trkpt lat="44.30578" lon="6.01851">
        <ele>909.063965</ele>
        <time>2012-01-25T11:09:59Z</time>
      </trkpt>
      <trkpt lat="44.30578" lon="6.01856">
        <ele>908.583252</ele>
        <time>2012-01-25T11:10:07Z</time>
      </trkpt>
      <trkpt lat="44.30574" lon="6.01856">
        <ele>908.102783</ele>
        <time>2012-01-25T11:10:17Z</time>
      </trkpt>
      <trkpt lat="44.30569" lon="6.01871">
        <ele>908.583252</ele>
        <time>2012-01-25T11:10:30Z</time>
      </trkpt>
      <trkpt lat="44.30569" lon="6.01897">
        <ele>909.063965</ele>
        <time>2012-01-25T11:10:41Z</time>
      </trkpt>
      <trkpt lat="44.3057" lon="6.01915">
        <ele>909.544678</ele>
        <time>2012-01-25T11:10:52Z</time>
      </trkpt>
      <trkpt lat="44.30567" lon="6.0194">
        <ele>909.544678</ele>
        <time>2012-01-25T11:11:04Z</time>
      </trkpt>
      <trkpt lat="44.3056" lon="6.0195">
        <ele>910.025146</ele>
        <time>2012-01-25T11:11:11Z</time>
      </trkpt>
      <trkpt lat="44.30543" lon="6.01958">
        <ele>910.505859</ele>
        <time>2012-01-25T11:11:26Z</time>
      </trkpt>
      <trkpt lat="44.30516" lon="6.01963">
        <ele>910.986572</ele>
        <time>2012-01-25T11:11:52Z</time>
      </trkpt>
      <trkpt lat="44.3048" lon="6.01965">
        <ele>912.428467</ele>
        <time>2012-01-25T11:12:24Z</time>
      </trkpt>
      <trkpt lat="44.30455" lon="6.01968">
        <ele>913.870361</ele>
        <time>2012-01-25T11:12:47Z</time>
      </trkpt>
      <trkpt lat="44.30433" lon="6.01953">
        <ele>914.831787</ele>
        <time>2012-01-25T11:13:05Z</time>
      </trkpt>
      <trkpt lat="44.30413" lon="6.01949">
        <ele>914.831787</ele>
        <time>2012-01-25T11:13:26Z</time>
      </trkpt>
      <trkpt lat="44.30389" lon="6.01961">
        <ele>916.273682</ele>
        <time>2012-01-25T11:14:00Z</time>
      </trkpt>
      <trkpt lat="44.30387" lon="6.01959">
        <ele>916.273682</ele>
        <time>2012-01-25T11:16:31Z</time>
      </trkpt>
      <trkpt lat="44.30396" lon="6.01988">
        <ele>916.273682</ele>
        <time>2012-01-25T11:16:51Z</time>
      </trkpt>
      <trkpt lat="44.30398" lon="6.01996">
        <ele>915.3125</ele>
        <time>2012-01-25T11:16:56Z</time>
      </trkpt>
      <trkpt lat="44.304" lon="6.02011">
        <ele>916.273682</ele>
        <time>2012-01-25T11:17:06Z</time>
      </trkpt>
      <trkpt lat="44.30394" lon="6.0203">
        <ele>916.273682</ele>
        <time>2012-01-25T11:17:16Z</time>
      </trkpt>
      <trkpt lat="44.3039" lon="6.02034">
        <ele>917.235107</ele>
        <time>2012-01-25T11:17:20Z</time>
      </trkpt>
      <trkpt lat="44.30381" lon="6.02055">
        <ele>916.754395</ele>
        <time>2012-01-25T11:17:34Z</time>
      </trkpt>
      <trkpt lat="44.30379" lon="6.02056">
        <ele>916.754395</ele>
        <time>2012-01-25T11:17:37Z</time>
      </trkpt>
      <trkpt lat="44.30377" lon="6.0208">
        <ele>917.235107</ele>
        <time>2012-01-25T11:17:52Z</time>
      </trkpt>
      <trkpt lat="44.30377" lon="6.02084">
        <ele>916.754395</ele>
        <time>2012-01-25T11:17:54Z</time>
      </trkpt>
      <trkpt lat="44.30379" lon="6.02089">
        <ele>916.754395</ele>
        <time>2012-01-25T11:17:58Z</time>
      </trkpt>
      <trkpt lat="44.30384" lon="6.02096">
        <ele>916.754395</ele>
        <time>2012-01-25T11:18:04Z</time>
      </trkpt>
      <trkpt lat="44.3039" lon="6.02104">
        <ele>916.273682</ele>
        <time>2012-01-25T11:18:10Z</time>
      </trkpt>
      <trkpt lat="44.30395" lon="6.02109">
        <ele>916.273682</ele>
        <time>2012-01-25T11:18:15Z</time>
      </trkpt>
      <trkpt lat="44.30411" lon="6.02137">
        <ele>915.793213</ele>
        <time>2012-01-25T11:18:37Z</time>
      </trkpt>
      <trkpt lat="44.30413" lon="6.0215">
        <ele>914.831787</ele>
        <time>2012-01-25T11:18:50Z</time>
      </trkpt>
      <trkpt lat="44.30415" lon="6.0216">
        <ele>915.3125</ele>
        <time>2012-01-25T11:19:00Z</time>
      </trkpt>
      <trkpt lat="44.30423" lon="6.02175">
        <ele>914.351074</ele>
        <time>2012-01-25T11:19:14Z</time>
      </trkpt>
      <trkpt lat="44.3044" lon="6.02206">
        <ele>913.389893</ele>
        <time>2012-01-25T11:19:38Z</time>
      </trkpt>
      <trkpt lat="44.30437" lon="6.02241">
        <ele>913.870361</ele>
        <time>2012-01-25T11:19:57Z</time>
      </trkpt>
      <trkpt lat="44.30436" lon="6.02243">
        <ele>912.90918</ele>
        <time>2012-01-25T11:20:08Z</time>
      </trkpt>
      <trkpt lat="44.30435" lon="6.02252">
        <ele>910.986572</ele>
        <time>2012-01-25T11:20:15Z</time>
      </trkpt>
      <trkpt lat="44.30441" lon="6.02276">
        <ele>910.505859</ele>
        <time>2012-01-25T11:20:32Z</time>
      </trkpt>
      <trkpt lat="44.30444" lon="6.0229">
        <ele>909.544678</ele>
        <time>2012-01-25T11:20:43Z</time>
      </trkpt>
      <trkpt lat="44.30446" lon="6.02301">
        <ele>908.583252</ele>
        <time>2012-01-25T11:20:52Z</time>
      </trkpt>
      <trkpt lat="44.30458" lon="6.02324">
        <ele>906.179688</ele>
        <time>2012-01-25T11:21:09Z</time>
      </trkpt>
      <trkpt lat="44.30465" lon="6.02341">
        <ele>905.218506</ele>
        <time>2012-01-25T11:21:21Z</time>
      </trkpt>
      <trkpt lat="44.3047" lon="6.02358">
        <ele>903.776611</ele>
        <time>2012-01-25T11:21:34Z</time>
      </trkpt>
      <trkpt lat="44.30476" lon="6.02408">
        <ele>901.373291</ele>
        <time>2012-01-25T11:22:03Z</time>
      </trkpt>
      <trkpt lat="44.30462" lon="6.0243">
        <ele>899.931396</ele>
        <time>2012-01-25T11:22:22Z</time>
      </trkpt>
      <trkpt lat="44.30445" lon="6.02445">
        <ele>897.528076</ele>
        <time>2012-01-25T11:22:44Z</time>
      </trkpt>
      <trkpt lat="44.3041" lon="6.02461">
        <ele>896.086182</ele>
        <time>2012-01-25T11:23:15Z</time>
      </trkpt>
      <trkpt lat="44.30386" lon="6.02482">
        <ele>894.644043</ele>
        <time>2012-01-25T11:23:40Z</time>
      </trkpt>
      <trkpt lat="44.30353" lon="6.02505">
        <ele>894.163574</ele>
        <time>2012-01-25T11:24:11Z</time>
      </trkpt>
      <trkpt lat="44.30314" lon="6.02527">
        <ele>896.086182</ele>
        <time>2012-01-25T11:24:46Z</time>
      </trkpt>
      <trkpt lat="44.30296" lon="6.02534">
        <ele>896.566895</ele>
        <time>2012-01-25T11:25:05Z</time>
      </trkpt>
      <trkpt lat="44.30267" lon="6.02545">
        <ele>897.528076</ele>
        <time>2012-01-25T11:25:33Z</time>
      </trkpt>
      <trkpt lat="44.30231" lon="6.02546">
        <ele>899.450684</ele>
        <time>2012-01-25T11:26:05Z</time>
      </trkpt>
      <trkpt lat="44.30198" lon="6.02543">
        <ele>900.412109</ele>
        <time>2012-01-25T11:26:38Z</time>
      </trkpt>
      <trkpt lat="44.30175" lon="6.0254">
        <ele>900.892578</ele>
        <time>2012-01-25T11:27:01Z</time>
      </trkpt>
      <trkpt lat="44.30143" lon="6.02549">
        <ele>902.815186</ele>
        <time>2012-01-25T11:27:35Z</time>
      </trkpt>
      <trkpt lat="44.30117" lon="6.02584">
        <ele>900.892578</ele>
        <time>2012-01-25T11:28:09Z</time>
      </trkpt>
      <trkpt lat="44.30097" lon="6.02605">
        <ele>900.892578</ele>
        <time>2012-01-25T11:28:35Z</time>
      </trkpt>
      <trkpt lat="44.30084" lon="6.02606">
        <ele>899.931396</ele>
        <time>2012-01-25T11:29:07Z</time>
      </trkpt>
      <trkpt lat="44.30079" lon="6.0261">
        <ele>898.969971</ele>
        <time>2012-01-25T11:29:27Z</time>
      </trkpt>
      <trkpt lat="44.30072" lon="6.02613">
        <ele>900.412109</ele>
        <time>2012-01-25T11:29:51Z</time>
      </trkpt>
      <trkpt lat="44.3007" lon="6.02613">
        <ele>899.931396</ele>
        <time>2012-01-25T11:29:56Z</time>
      </trkpt>
      <trkpt lat="44.30062" lon="6.02607">
        <ele>899.450684</ele>
        <time>2012-01-25T11:30:06Z</time>
      </trkpt>
      <trkpt lat="44.30054" lon="6.02603">
        <ele>899.931396</ele>
        <time>2012-01-25T11:30:14Z</time>
      </trkpt>
      <trkpt lat="44.30047" lon="6.02602">
        <ele>898.008789</ele>
        <time>2012-01-25T11:30:23Z</time>
      </trkpt>
      <trkpt lat="44.30044" lon="6.02604">
        <ele>899.450684</ele>
        <time>2012-01-25T11:30:26Z</time>
      </trkpt>
      <trkpt lat="44.30034" lon="6.02606">
        <ele>898.489258</ele>
        <time>2012-01-25T11:30:35Z</time>
      </trkpt>
      <trkpt lat="44.30036" lon="6.02625">
        <ele>898.489258</ele>
        <time>2012-01-25T11:30:53Z</time>
      </trkpt>
      <trkpt lat="44.30039" lon="6.02629">
        <ele>898.489258</ele>
        <time>2012-01-25T11:31:03Z</time>
      </trkpt>
      <trkpt lat="44.30038" lon="6.0262">
        <ele>899.450684</ele>
        <time>2012-01-25T11:31:16Z</time>
      </trkpt>
      <trkpt lat="44.30042" lon="6.02617">
        <ele>900.892578</ele>
        <time>2012-01-25T11:31:23Z</time>
      </trkpt>
      <trkpt lat="44.30048" lon="6.02616">
        <ele>901.373291</ele>
        <time>2012-01-25T11:31:31Z</time>
      </trkpt>
      <trkpt lat="44.30054" lon="6.02616">
        <ele>901.854004</ele>
        <time>2012-01-25T11:31:44Z</time>
      </trkpt>
      <trkpt lat="44.30052" lon="6.02616">
        <ele>901.854004</ele>
        <time>2012-01-25T11:32:00Z</time>
      </trkpt>
      <trkpt lat="44.3004" lon="6.02619">
        <ele>900.892578</ele>
        <time>2012-01-25T11:32:18Z</time>
      </trkpt>
      <trkpt lat="44.30039" lon="6.0262">
        <ele>899.931396</ele>
        <time>2012-01-25T11:32:35Z</time>
      </trkpt>
      <trkpt lat="44.30038" lon="6.02619">
        <ele>898.969971</ele>
        <time>2012-01-25T11:33:23Z</time>
      </trkpt>
      <trkpt lat="44.30038" lon="6.02618">
        <ele>898.489258</ele>
        <time>2012-01-25T11:36:15Z</time>
      </trkpt>
      <trkpt lat="44.30039" lon="6.02618">
        <ele>899.450684</ele>
        <time>2012-01-25T11:37:06Z</time>
      </trkpt>
      <trkpt lat="44.30039" lon="6.02618">
        <ele>899.931396</ele>
        <time>2012-01-25T11:38:11Z</time>
      </trkpt>
      <trkpt lat="44.3004" lon="6.02619">
        <ele>896.566895</ele>
        <time>2012-01-25T11:41:46Z</time>
      </trkpt>
      <trkpt lat="44.30041" lon="6.02619">
        <ele>895.605469</ele>
        <time>2012-01-25T12:01:07Z</time>
      </trkpt>
      <trkpt lat="44.30039" lon="6.02629">
        <ele>894.644043</ele>
        <time>2012-01-25T12:02:37Z</time>
      </trkpt>
      <trkpt lat="44.30046" lon="6.02634">
        <ele>893.682861</ele>
        <time>2012-01-25T12:02:57Z</time>
      </trkpt>
      <trkpt lat="44.30046" lon="6.02633">
        <ele>893.682861</ele>
        <time>2012-01-25T12:03:02Z</time>
      </trkpt>
      <trkpt lat="44.30064" lon="6.02633">
        <ele>892.72168</ele>
        <time>2012-01-25T12:03:20Z</time>
      </trkpt>
      <trkpt lat="44.3008" lon="6.02633">
        <ele>890.798584</ele>
        <time>2012-01-25T12:03:36Z</time>
      </trkpt>
      <trkpt lat="44.30092" lon="6.02633">
        <ele>888.876221</ele>
        <time>2012-01-25T12:03:47Z</time>
      </trkpt>
      <trkpt lat="44.30114" lon="6.02626">
        <ele>887.434082</ele>
        <time>2012-01-25T12:04:09Z</time>
      </trkpt>
      <trkpt lat="44.30136" lon="6.02623">
        <ele>885.511475</ele>
        <time>2012-01-25T12:04:29Z</time>
      </trkpt>
      <trkpt lat="44.30161" lon="6.0263">
        <ele>883.588867</ele>
        <time>2012-01-25T12:04:52Z</time>
      </trkpt>
      <trkpt lat="44.30177" lon="6.02635">
        <ele>882.146973</ele>
        <time>2012-01-25T12:05:07Z</time>
      </trkpt>
      <trkpt lat="44.30201" lon="6.02641">
        <ele>880.224365</ele>
        <time>2012-01-25T12:05:27Z</time>
      </trkpt>
      <trkpt lat="44.30219" lon="6.02648">
        <ele>878.782471</ele>
        <time>2012-01-25T12:05:44Z</time>
      </trkpt>
      <trkpt lat="44.30243" lon="6.02662">
        <ele>876.37915</ele>
        <time>2012-01-25T12:06:05Z</time>
      </trkpt>
      <trkpt lat="44.30268" lon="6.02671">
        <ele>874.456299</ele>
        <time>2012-01-25T12:06:28Z</time>
      </trkpt>
      <trkpt lat="44.30289" lon="6.02664">
        <ele>872.533691</ele>
        <time>2012-01-25T12:06:48Z</time>
      </trkpt>
      <trkpt lat="44.30306" lon="6.0265">
        <ele>870.611084</ele>
        <time>2012-01-25T12:07:07Z</time>
      </trkpt>
      <trkpt lat="44.3032" lon="6.02632">
        <ele>869.169189</ele>
        <time>2012-01-25T12:07:24Z</time>
      </trkpt>
      <trkpt lat="44.30325" lon="6.0263">
        <ele>868.207764</ele>
        <time>2012-01-25T12:07:38Z</time>
      </trkpt>
      <trkpt lat="44.30331" lon="6.02619">
        <ele>867.246582</ele>
        <time>2012-01-25T12:07:58Z</time>
      </trkpt>
      <trkpt lat="44.30333" lon="6.02617">
        <ele>867.246582</ele>
        <time>2012-01-25T12:08:01Z</time>
      </trkpt>
      <trkpt lat="44.30348" lon="6.02604">
        <ele>865.323975</ele>
        <time>2012-01-25T12:08:18Z</time>
      </trkpt>
      <trkpt lat="44.30358" lon="6.02598">
        <ele>864.362549</ele>
        <time>2012-01-25T12:08:30Z</time>
      </trkpt>
      <trkpt lat="44.30374" lon="6.02589">
        <ele>862.920654</ele>
        <time>2012-01-25T12:08:45Z</time>
      </trkpt>
      <trkpt lat="44.30388" lon="6.02585">
        <ele>862.439941</ele>
        <time>2012-01-25T12:08:56Z</time>
      </trkpt>
      <trkpt lat="44.30401" lon="6.02584">
        <ele>860.998047</ele>
        <time>2012-01-25T12:09:07Z</time>
      </trkpt>
      <trkpt lat="44.30403" lon="6.02586">
        <ele>860.517334</ele>
        <time>2012-01-25T12:09:09Z</time>
      </trkpt>
      <trkpt lat="44.30421" lon="6.02586">
        <ele>859.555908</ele>
        <time>2012-01-25T12:09:24Z</time>
      </trkpt>
      <trkpt lat="44.30438" lon="6.02591">
        <ele>857.633301</ele>
        <time>2012-01-25T12:09:38Z</time>
      </trkpt>
      <trkpt lat="44.30452" lon="6.0258">
        <ele>856.671875</ele>
        <time>2012-01-25T12:09:51Z</time>
      </trkpt>
      <trkpt lat="44.3046" lon="6.02568">
        <ele>855.710693</ele>
        <time>2012-01-25T12:10:01Z</time>
      </trkpt>
      <trkpt lat="44.30468" lon="6.02588">
        <ele>854.268799</ele>
        <time>2012-01-25T12:10:18Z</time>
      </trkpt>
      <trkpt lat="44.30457" lon="6.02594">
        <ele>852.345947</ele>
        <time>2012-01-25T12:10:34Z</time>
      </trkpt>
      <trkpt lat="44.30449" lon="6.02602">
        <ele>852.82666</ele>
        <time>2012-01-25T12:10:43Z</time>
      </trkpt>
      <trkpt lat="44.30434" lon="6.02621">
        <ele>849.942871</ele>
        <time>2012-01-25T12:11:01Z</time>
      </trkpt>
      <trkpt lat="44.30424" lon="6.0264">
        <ele>848.020264</ele>
        <time>2012-01-25T12:11:16Z</time>
      </trkpt>
      <trkpt lat="44.30415" lon="6.02659">
        <ele>847.058838</ele>
        <time>2012-01-25T12:11:30Z</time>
      </trkpt>
      <trkpt lat="44.30402" lon="6.02675">
        <ele>844.655518</ele>
        <time>2012-01-25T12:11:42Z</time>
      </trkpt>
      <trkpt lat="44.30402" lon="6.02676">
        <ele>844.655518</ele>
        <time>2012-01-25T12:11:43Z</time>
      </trkpt>
      <trkpt lat="44.30397" lon="6.02682">
        <ele>843.694092</ele>
        <time>2012-01-25T12:11:47Z</time>
      </trkpt>
      <trkpt lat="44.30389" lon="6.027">
        <ele>843.694092</ele>
        <time>2012-01-25T12:12:03Z</time>
      </trkpt>
      <trkpt lat="44.30382" lon="6.02704">
        <ele>843.213379</ele>
        <time>2012-01-25T12:12:06Z</time>
      </trkpt>
      <trkpt lat="44.30373" lon="6.02708">
        <ele>841.771484</ele>
        <time>2012-01-25T12:12:17Z</time>
      </trkpt>
      <trkpt lat="44.30366" lon="6.02717">
        <ele>841.290771</ele>
        <time>2012-01-25T12:12:27Z</time>
      </trkpt>
      <trkpt lat="44.30362" lon="6.02726">
        <ele>839.368164</ele>
        <time>2012-01-25T12:12:34Z</time>
      </trkpt>
      <trkpt lat="44.30361" lon="6.02728">
        <ele>839.848877</ele>
        <time>2012-01-25T12:12:36Z</time>
      </trkpt>
      <trkpt lat="44.30349" lon="6.02757">
        <ele>837.445557</ele>
        <time>2012-01-25T12:12:55Z</time>
      </trkpt>
      <trkpt lat="44.30338" lon="6.02776">
        <ele>835.522949</ele>
        <time>2012-01-25T12:13:10Z</time>
      </trkpt>
      <trkpt lat="44.30324" lon="6.02802">
        <ele>832.158447</ele>
        <time>2012-01-25T12:13:29Z</time>
      </trkpt>
      <trkpt lat="44.30313" lon="6.02824">
        <ele>829.274414</ele>
        <time>2012-01-25T12:13:46Z</time>
      </trkpt>
      <trkpt lat="44.30311" lon="6.02831">
        <ele>829.755127</ele>
        <time>2012-01-25T12:13:50Z</time>
      </trkpt>
      <trkpt lat="44.30305" lon="6.02848">
        <ele>827.351807</ele>
        <time>2012-01-25T12:14:04Z</time>
      </trkpt>
      <trkpt lat="44.30298" lon="6.0287">
        <ele>826.871094</ele>
        <time>2012-01-25T12:14:20Z</time>
      </trkpt>
      <trkpt lat="44.30294" lon="6.02893">
        <ele>824.948486</ele>
        <time>2012-01-25T12:14:36Z</time>
      </trkpt>
      <trkpt lat="44.30291" lon="6.02936">
        <ele>822.064453</ele>
        <time>2012-01-25T12:15:03Z</time>
      </trkpt>
      <trkpt lat="44.3028" lon="6.02965">
        <ele>819.180664</ele>
        <time>2012-01-25T12:15:25Z</time>
      </trkpt>
      <trkpt lat="44.3026" lon="6.02988">
        <ele>816.777344</ele>
        <time>2012-01-25T12:15:49Z</time>
      </trkpt>
      <trkpt lat="44.30237" lon="6.02995">
        <ele>813.412842</ele>
        <time>2012-01-25T12:16:13Z</time>
      </trkpt>
      <trkpt lat="44.30219" lon="6.03003">
        <ele>811.970703</ele>
        <time>2012-01-25T12:16:29Z</time>
      </trkpt>
      <trkpt lat="44.30199" lon="6.03003">
        <ele>810.528564</ele>
        <time>2012-01-25T12:16:44Z</time>
      </trkpt>
      <trkpt lat="44.30181" lon="6.03001">
        <ele>807.644775</ele>
        <time>2012-01-25T12:17:02Z</time>
      </trkpt>
      <trkpt lat="44.30161" lon="6.02995">
        <ele>806.202637</ele>
        <time>2012-01-25T12:17:20Z</time>
      </trkpt>
      <trkpt lat="44.30151" lon="6.02987">
        <ele>804.760742</ele>
        <time>2012-01-25T12:17:29Z</time>
      </trkpt>
      <trkpt lat="44.30135" lon="6.02979">
        <ele>803.318848</ele>
        <time>2012-01-25T12:17:44Z</time>
      </trkpt>
      <trkpt lat="44.30133" lon="6.02979">
        <ele>802.838135</ele>
        <time>2012-01-25T12:17:46Z</time>
      </trkpt>
      <trkpt lat="44.3013" lon="6.02978">
        <ele>802.838135</ele>
        <time>2012-01-25T12:17:48Z</time>
      </trkpt>
      <trkpt lat="44.30116" lon="6.02978">
        <ele>800.915527</ele>
        <time>2012-01-25T12:18:00Z</time>
      </trkpt>
      <trkpt lat="44.30107" lon="6.02978">
        <ele>799.954346</ele>
        <time>2012-01-25T12:18:07Z</time>
      </trkpt>
      <trkpt lat="44.30095" lon="6.02975">
        <ele>799.473633</ele>
        <time>2012-01-25T12:18:18Z</time>
      </trkpt>
      <trkpt lat="44.30086" lon="6.02973">
        <ele>797.551025</ele>
        <time>2012-01-25T12:18:26Z</time>
      </trkpt>
      <trkpt lat="44.30066" lon="6.02962">
        <ele>795.628174</ele>
        <time>2012-01-25T12:18:44Z</time>
      </trkpt>
      <trkpt lat="44.30049" lon="6.02957">
        <ele>792.744385</ele>
        <time>2012-01-25T12:19:02Z</time>
      </trkpt>
      <trkpt lat="44.30027" lon="6.02946">
        <ele>789.860352</ele>
        <time>2012-01-25T12:19:24Z</time>
      </trkpt>
      <trkpt lat="44.30007" lon="6.02934">
        <ele>787.937744</ele>
        <time>2012-01-25T12:19:42Z</time>
      </trkpt>
      <trkpt lat="44.2999" lon="6.02912">
        <ele>785.053955</ele>
        <time>2012-01-25T12:20:07Z</time>
      </trkpt>
      <trkpt lat="44.2998" lon="6.02896">
        <ele>784.573242</ele>
        <time>2012-01-25T12:20:13Z</time>
      </trkpt>
      <trkpt lat="44.29974" lon="6.02911">
        <ele>782.169922</ele>
        <time>2012-01-25T12:20:34Z</time>
      </trkpt>
      <trkpt lat="44.3" lon="6.02944">
        <ele>779.285645</ele>
        <time>2012-01-25T12:21:05Z</time>
      </trkpt>
      <trkpt lat="44.30002" lon="6.02953">
        <ele>778.805176</ele>
        <time>2012-01-25T12:21:20Z</time>
      </trkpt>
      <trkpt lat="44.3001" lon="6.02957">
        <ele>776.882568</ele>
        <time>2012-01-25T12:21:31Z</time>
      </trkpt>
      <trkpt lat="44.30019" lon="6.02961">
        <ele>776.401855</ele>
        <time>2012-01-25T12:21:37Z</time>
      </trkpt>
      <trkpt lat="44.30025" lon="6.02962">
        <ele>775.921143</ele>
        <time>2012-01-25T12:21:41Z</time>
      </trkpt>
      <trkpt lat="44.30035" lon="6.02988">
        <ele>774.479248</ele>
        <time>2012-01-25T12:21:59Z</time>
      </trkpt>
      <trkpt lat="44.30039" lon="6.02994">
        <ele>773.037354</ele>
        <time>2012-01-25T12:22:06Z</time>
      </trkpt>
      <trkpt lat="44.30053" lon="6.03016">
        <ele>770.634033</ele>
        <time>2012-01-25T12:22:23Z</time>
      </trkpt>
      <trkpt lat="44.30064" lon="6.03029">
        <ele>768.711426</ele>
        <time>2012-01-25T12:22:36Z</time>
      </trkpt>
      <trkpt lat="44.30076" lon="6.03046">
        <ele>766.788818</ele>
        <time>2012-01-25T12:22:50Z</time>
      </trkpt>
      <trkpt lat="44.30087" lon="6.03046">
        <ele>766.308105</ele>
        <time>2012-01-25T12:22:57Z</time>
      </trkpt>
      <trkpt lat="44.301" lon="6.03057">
        <ele>763.904541</ele>
        <time>2012-01-25T12:23:11Z</time>
      </trkpt>
      <trkpt lat="44.30104" lon="6.03059">
        <ele>764.385498</ele>
        <time>2012-01-25T12:23:15Z</time>
      </trkpt>
      <trkpt lat="44.30106" lon="6.03061">
        <ele>762.462646</ele>
        <time>2012-01-25T12:23:17Z</time>
      </trkpt>
      <trkpt lat="44.30109" lon="6.03064">
        <ele>763.904541</ele>
        <time>2012-01-25T12:23:21Z</time>
      </trkpt>
      <trkpt lat="44.3011" lon="6.03065">
        <ele>761.982178</ele>
        <time>2012-01-25T12:23:22Z</time>
      </trkpt>
      <trkpt lat="44.30126" lon="6.03078">
        <ele>760.059326</ele>
        <time>2012-01-25T12:23:39Z</time>
      </trkpt>
      <trkpt lat="44.30131" lon="6.03083">
        <ele>759.098145</ele>
        <time>2012-01-25T12:23:44Z</time>
      </trkpt>
      <trkpt lat="44.30139" lon="6.03089">
        <ele>758.617432</ele>
        <time>2012-01-25T12:23:52Z</time>
      </trkpt>
      <trkpt lat="44.30149" lon="6.031">
        <ele>756.694824</ele>
        <time>2012-01-25T12:24:05Z</time>
      </trkpt>
      <trkpt lat="44.30154" lon="6.03103">
        <ele>756.214111</ele>
        <time>2012-01-25T12:24:10Z</time>
      </trkpt>
      <trkpt lat="44.30162" lon="6.03115">
        <ele>754.291748</ele>
        <time>2012-01-25T12:24:27Z</time>
      </trkpt>
      <trkpt lat="44.30171" lon="6.03117">
        <ele>753.811035</ele>
        <time>2012-01-25T12:24:52Z</time>
      </trkpt>
      <trkpt lat="44.3017" lon="6.03115">
        <ele>753.330322</ele>
        <time>2012-01-25T12:24:55Z</time>
      </trkpt>
      <trkpt lat="44.3016" lon="6.03108">
        <ele>754.772217</ele>
        <time>2012-01-25T12:25:12Z</time>
      </trkpt>
      <trkpt lat="44.30152" lon="6.03108">
        <ele>751.888428</ele>
        <time>2012-01-25T12:25:32Z</time>
      </trkpt>
      <trkpt lat="44.30154" lon="6.03119">
        <ele>748.523682</ele>
        <time>2012-01-25T12:25:48Z</time>
      </trkpt>
      <trkpt lat="44.30154" lon="6.03119">
        <ele>749.96582</ele>
        <time>2012-01-25T12:25:51Z</time>
      </trkpt>
      <trkpt lat="44.30154" lon="6.03123">
        <ele>748.523682</ele>
        <time>2012-01-25T12:26:13Z</time>
      </trkpt>
      <trkpt lat="44.30153" lon="6.03132">
        <ele>745.158936</ele>
        <time>2012-01-25T12:26:28Z</time>
      </trkpt>
      <trkpt lat="44.30139" lon="6.03127">
        <ele>742.275146</ele>
        <time>2012-01-25T12:26:47Z</time>
      </trkpt>
      <trkpt lat="44.30132" lon="6.03125">
        <ele>740.833008</ele>
        <time>2012-01-25T12:27:04Z</time>
      </trkpt>
      <trkpt lat="44.30131" lon="6.03124">
        <ele>739.391113</ele>
        <time>2012-01-25T12:27:07Z</time>
      </trkpt>
      <trkpt lat="44.30111" lon="6.03126">
        <ele>737.468506</ele>
        <time>2012-01-25T12:27:26Z</time>
      </trkpt>
      <trkpt lat="44.30097" lon="6.03119">
        <ele>735.545898</ele>
        <time>2012-01-25T12:27:43Z</time>
      </trkpt>
      <trkpt lat="44.30088" lon="6.03116">
        <ele>733.623291</ele>
        <time>2012-01-25T12:27:55Z</time>
      </trkpt>
      <trkpt lat="44.30084" lon="6.03112">
        <ele>732.662109</ele>
        <time>2012-01-25T12:28:00Z</time>
      </trkpt>
      <trkpt lat="44.30064" lon="6.0311">
        <ele>729.777832</ele>
        <time>2012-01-25T12:28:24Z</time>
      </trkpt>
      <trkpt lat="44.30061" lon="6.03112">
        <ele>728.335938</ele>
        <time>2012-01-25T12:28:27Z</time>
      </trkpt>
      <trkpt lat="44.30043" lon="6.03107">
        <ele>725.451904</ele>
        <time>2012-01-25T12:28:49Z</time>
      </trkpt>
      <trkpt lat="44.30036" lon="6.0311">
        <ele>723.529541</ele>
        <time>2012-01-25T12:29:07Z</time>
      </trkpt>
      <trkpt lat="44.3005" lon="6.03125">
        <ele>721.126221</ele>
        <time>2012-01-25T12:29:31Z</time>
      </trkpt>
      <trkpt lat="44.30038" lon="6.03123">
        <ele>718.242188</ele>
        <time>2012-01-25T12:29:50Z</time>
      </trkpt>
      <trkpt lat="44.30019" lon="6.03113">
        <ele>715.358154</ele>
        <time>2012-01-25T12:30:12Z</time>
      </trkpt>
      <trkpt lat="44.3" lon="6.03104">
        <ele>711.993652</ele>
        <time>2012-01-25T12:30:35Z</time>
      </trkpt>
      <trkpt lat="44.29987" lon="6.03085">
        <ele>709.590332</ele>
        <time>2012-01-25T12:30:55Z</time>
      </trkpt>
      <trkpt lat="44.2997" lon="6.03086">
        <ele>706.225586</ele>
        <time>2012-01-25T12:31:19Z</time>
      </trkpt>
      <trkpt lat="44.29948" lon="6.03087">
        <ele>702.861084</ele>
        <time>2012-01-25T12:31:44Z</time>
      </trkpt>
      <trkpt lat="44.29939" lon="6.03087">
        <ele>701.419189</ele>
        <time>2012-01-25T12:32:03Z</time>
      </trkpt>
      <trkpt lat="44.2993" lon="6.03092">
        <ele>698.054443</ele>
        <time>2012-01-25T12:32:16Z</time>
      </trkpt>
      <trkpt lat="44.29925" lon="6.03099">
        <ele>694.689697</ele>
        <time>2012-01-25T12:32:28Z</time>
      </trkpt>
      <trkpt lat="44.29916" lon="6.03097">
        <ele>693.728516</ele>
        <time>2012-01-25T12:32:44Z</time>
      </trkpt>
      <trkpt lat="44.29894" lon="6.03103">
        <ele>694.689697</ele>
        <time>2012-01-25T12:33:06Z</time>
      </trkpt>
      <trkpt lat="44.29888" lon="6.03101">
        <ele>694.689697</ele>
        <time>2012-01-25T12:33:13Z</time>
      </trkpt>
      <trkpt lat="44.29881" lon="6.03104">
        <ele>693.728516</ele>
        <time>2012-01-25T12:33:19Z</time>
      </trkpt>
      <trkpt lat="44.29867" lon="6.031">
        <ele>692.286621</ele>
        <time>2012-01-25T12:33:37Z</time>
      </trkpt>
      <trkpt lat="44.29856" lon="6.03087">
        <ele>692.767334</ele>
        <time>2012-01-25T12:33:57Z</time>
      </trkpt>
      <trkpt lat="44.29858" lon="6.03079">
        <ele>691.805908</ele>
        <time>2012-01-25T12:34:12Z</time>
      </trkpt>
      <trkpt lat="44.29837" lon="6.03079">
        <ele>690.844482</ele>
        <time>2012-01-25T12:34:31Z</time>
      </trkpt>
      <trkpt lat="44.29835" lon="6.03076">
        <ele>690.364014</ele>
        <time>2012-01-25T12:34:34Z</time>
      </trkpt>
      <trkpt lat="44.29828" lon="6.03068">
        <ele>691.325195</ele>
        <time>2012-01-25T12:34:52Z</time>
      </trkpt>
      <trkpt lat="44.29823" lon="6.03068">
        <ele>689.402588</ele>
        <time>2012-01-25T12:35:22Z</time>
      </trkpt>
      <trkpt lat="44.29816" lon="6.03064">
        <ele>686.999268</ele>
        <time>2012-01-25T12:35:31Z</time>
      </trkpt>
      <trkpt lat="44.29809" lon="6.03058">
        <ele>686.518799</ele>
        <time>2012-01-25T12:35:41Z</time>
      </trkpt>
      <trkpt lat="44.29799" lon="6.03055">
        <ele>682.192627</ele>
        <time>2012-01-25T12:35:55Z</time>
      </trkpt>
      <trkpt lat="44.29794" lon="6.03054">
        <ele>681.711914</ele>
        <time>2012-01-25T12:36:00Z</time>
      </trkpt>
      <trkpt lat="44.29788" lon="6.03052">
        <ele>680.750732</ele>
        <time>2012-01-25T12:36:06Z</time>
      </trkpt>
      <trkpt lat="44.29785" lon="6.03054">
        <ele>679.789307</ele>
        <time>2012-01-25T12:36:11Z</time>
      </trkpt>
      <trkpt lat="44.29773" lon="6.03048">
        <ele>677.866699</ele>
        <time>2012-01-25T12:36:26Z</time>
      </trkpt>
      <trkpt lat="44.29769" lon="6.03048">
        <ele>675.944092</ele>
        <time>2012-01-25T12:36:30Z</time>
      </trkpt>
      <trkpt lat="44.29759" lon="6.0304">
        <ele>673.541016</ele>
        <time>2012-01-25T12:36:43Z</time>
      </trkpt>
      <trkpt lat="44.29749" lon="6.03037">
        <ele>671.137695</ele>
        <time>2012-01-25T12:36:58Z</time>
      </trkpt>
      <trkpt lat="44.29746" lon="6.03037">
        <ele>669.695801</ele>
        <time>2012-01-25T12:37:03Z</time>
      </trkpt>
      <trkpt lat="44.29741" lon="6.03034">
        <ele>668.253662</ele>
        <time>2012-01-25T12:37:10Z</time>
      </trkpt>
      <trkpt lat="44.29728" lon="6.0303">
        <ele>664.888916</ele>
        <time>2012-01-25T12:37:27Z</time>
      </trkpt>
      <trkpt lat="44.29723" lon="6.0302">
        <ele>662.966309</ele>
        <time>2012-01-25T12:37:39Z</time>
      </trkpt>
      <trkpt lat="44.29722" lon="6.03011">
        <ele>661.043701</ele>
        <time>2012-01-25T12:37:46Z</time>
      </trkpt>
      <trkpt lat="44.29715" lon="6.02992">
        <ele>659.121094</ele>
        <time>2012-01-25T12:38:00Z</time>
      </trkpt>
      <trkpt lat="44.29714" lon="6.02979">
        <ele>657.198486</ele>
        <time>2012-01-25T12:38:09Z</time>
      </trkpt>
      <trkpt lat="44.29708" lon="6.02968">
        <ele>655.275879</ele>
        <time>2012-01-25T12:38:22Z</time>
      </trkpt>
      <trkpt lat="44.29704" lon="6.02965">
        <ele>656.237061</ele>
        <time>2012-01-25T12:38:27Z</time>
      </trkpt>
      <trkpt lat="44.29701" lon="6.02962">
        <ele>656.237061</ele>
        <time>2012-01-25T12:38:40Z</time>
      </trkpt>
      <trkpt lat="44.297" lon="6.02953">
        <ele>654.314697</ele>
        <time>2012-01-25T12:39:38Z</time>
      </trkpt>
      <trkpt lat="44.29692" lon="6.02947">
        <ele>651.43042</ele>
        <time>2012-01-25T12:40:00Z</time>
      </trkpt>
      <trkpt lat="44.2969" lon="6.02945">
        <ele>650.949707</ele>
        <time>2012-01-25T12:40:04Z</time>
      </trkpt>
      <trkpt lat="44.29689" lon="6.02942">
        <ele>649.988525</ele>
        <time>2012-01-25T12:40:08Z</time>
      </trkpt>
      <trkpt lat="44.29685" lon="6.0294">
        <ele>647.104492</ele>
        <time>2012-01-25T12:40:26Z</time>
      </trkpt>
      <trkpt lat="44.29683" lon="6.02934">
        <ele>645.662598</ele>
        <time>2012-01-25T12:40:46Z</time>
      </trkpt>
      <trkpt lat="44.29683" lon="6.02931">
        <ele>644.220703</ele>
        <time>2012-01-25T12:41:07Z</time>
      </trkpt>
      <trkpt lat="44.29675" lon="6.02929">
        <ele>642.778809</ele>
        <time>2012-01-25T12:41:26Z</time>
      </trkpt>
      <trkpt lat="44.2967" lon="6.02929">
        <ele>640.855957</ele>
        <time>2012-01-25T12:41:43Z</time>
      </trkpt>
      <trkpt lat="44.29668" lon="6.02927">
        <ele>637.972168</ele>
        <time>2012-01-25T12:42:06Z</time>
      </trkpt>
      <trkpt lat="44.29665" lon="6.02943">
        <ele>635.088135</ele>
        <time>2012-01-25T12:42:31Z</time>
      </trkpt>
      <trkpt lat="44.29658" lon="6.02969">
        <ele>631.723389</ele>
        <time>2012-01-25T12:42:52Z</time>
      </trkpt>
      <trkpt lat="44.29647" lon="6.02962">
        <ele>628.358887</ele>
        <time>2012-01-25T12:43:13Z</time>
      </trkpt>
      <trkpt lat="44.29641" lon="6.02915">
        <ele>628.358887</ele>
        <time>2012-01-25T12:43:41Z</time>
      </trkpt>
      <trkpt lat="44.29625" lon="6.02891">
        <ele>625.474854</ele>
        <time>2012-01-25T12:44:06Z</time>
      </trkpt>
      <trkpt lat="44.29613" lon="6.02871">
        <ele>622.110352</ele>
        <time>2012-01-25T12:44:23Z</time>
      </trkpt>
      <trkpt lat="44.29598" lon="6.02862">
        <ele>618.264893</ele>
        <time>2012-01-25T12:44:48Z</time>
      </trkpt>
      <trkpt lat="44.29593" lon="6.02886">
        <ele>617.303711</ele>
        <time>2012-01-25T12:45:10Z</time>
      </trkpt>
      <trkpt lat="44.29592" lon="6.02888">
        <ele>616.822998</ele>
        <time>2012-01-25T12:45:16Z</time>
      </trkpt>
      <trkpt lat="44.29591" lon="6.02885">
        <ele>616.342285</ele>
        <time>2012-01-25T12:45:18Z</time>
      </trkpt>
      <trkpt lat="44.29568" lon="6.02868">
        <ele>616.822998</ele>
        <time>2012-01-25T12:45:41Z</time>
      </trkpt>
      <trkpt lat="44.2956" lon="6.02863">
        <ele>616.822998</ele>
        <time>2012-01-25T12:45:50Z</time>
      </trkpt>
      <trkpt lat="44.29557" lon="6.02859">
        <ele>615.861816</ele>
        <time>2012-01-25T12:45:54Z</time>
      </trkpt>
      <trkpt lat="44.2954" lon="6.02843">
        <ele>615.861816</ele>
        <time>2012-01-25T12:46:09Z</time>
      </trkpt>
      <trkpt lat="44.29523" lon="6.02832">
        <ele>616.822998</ele>
        <time>2012-01-25T12:46:27Z</time>
      </trkpt>
      <trkpt lat="44.29511" lon="6.02826">
        <ele>616.822998</ele>
        <time>2012-01-25T12:46:40Z</time>
      </trkpt>
      <trkpt lat="44.29508" lon="6.02825">
        <ele>614.900391</ele>
        <time>2012-01-25T12:46:42Z</time>
      </trkpt>
      <trkpt lat="44.29488" lon="6.02813">
        <ele>615.861816</ele>
        <time>2012-01-25T12:47:05Z</time>
      </trkpt>
      <trkpt lat="44.29471" lon="6.02807">
        <ele>614.900391</ele>
        <time>2012-01-25T12:47:18Z</time>
      </trkpt>
      <trkpt lat="44.29447" lon="6.02793">
        <ele>614.900391</ele>
        <time>2012-01-25T12:47:42Z</time>
      </trkpt>
      <trkpt lat="44.29428" lon="6.02783">
        <ele>615.381104</ele>
        <time>2012-01-25T12:48:03Z</time>
      </trkpt>
      <trkpt lat="44.29406" lon="6.02771">
        <ele>613.938965</ele>
        <time>2012-01-25T12:48:26Z</time>
      </trkpt>
      <trkpt lat="44.29403" lon="6.02772">
        <ele>613.938965</ele>
        <time>2012-01-25T12:48:41Z</time>
      </trkpt>
      <trkpt lat="44.29397" lon="6.02776">
        <ele>611.055176</ele>
        <time>2012-01-25T12:49:11Z</time>
      </trkpt>
      <trkpt lat="44.29389" lon="6.0278">
        <ele>611.535889</ele>
        <time>2012-01-25T12:49:31Z</time>
      </trkpt>
      <trkpt lat="44.29362" lon="6.0277">
        <ele>610.574463</ele>
        <time>2012-01-25T12:49:57Z</time>
      </trkpt>
      <trkpt lat="44.29331" lon="6.02757">
        <ele>611.535889</ele>
        <time>2012-01-25T12:50:28Z</time>
      </trkpt>
      <trkpt lat="44.29308" lon="6.02746">
        <ele>610.574463</ele>
        <time>2012-01-25T12:50:51Z</time>
      </trkpt>
      <trkpt lat="44.29285" lon="6.02737">
        <ele>610.09375</ele>
        <time>2012-01-25T12:51:15Z</time>
      </trkpt>
      <trkpt lat="44.29263" lon="6.02736">
        <ele>610.09375</ele>
        <time>2012-01-25T12:51:37Z</time>
      </trkpt>
      <trkpt lat="44.29241" lon="6.02733">
        <ele>609.613281</ele>
        <time>2012-01-25T12:51:59Z</time>
      </trkpt>
      <trkpt lat="44.2921" lon="6.02729">
        <ele>609.132568</ele>
        <time>2012-01-25T12:52:27Z</time>
      </trkpt>
      <trkpt lat="44.29183" lon="6.02725">
        <ele>608.651855</ele>
        <time>2012-01-25T12:52:52Z</time>
      </trkpt>
      <trkpt lat="44.29157" lon="6.0271">
        <ele>608.171387</ele>
        <time>2012-01-25T12:53:20Z</time>
      </trkpt>
      <trkpt lat="44.29135" lon="6.02704">
        <ele>607.690674</ele>
        <time>2012-01-25T12:53:46Z</time>
      </trkpt>
      <trkpt lat="44.29107" lon="6.0269">
        <ele>607.209961</ele>
        <time>2012-01-25T12:54:15Z</time>
      </trkpt>
      <trkpt lat="44.29087" lon="6.02677">
        <ele>607.209961</ele>
        <time>2012-01-25T12:54:39Z</time>
      </trkpt>
      <trkpt lat="44.29071" lon="6.02664">
        <ele>606.729248</ele>
        <time>2012-01-25T12:55:00Z</time>
      </trkpt>
      <trkpt lat="44.29052" lon="6.02668">
        <ele>606.248535</ele>
        <time>2012-01-25T12:55:25Z</time>
      </trkpt>
      <trkpt lat="44.29038" lon="6.02692">
        <ele>605.768066</ele>
        <time>2012-01-25T12:55:45Z</time>
      </trkpt>
      <trkpt lat="44.29015" lon="6.02696">
        <ele>605.287354</ele>
        <time>2012-01-25T12:56:04Z</time>
      </trkpt>
      <trkpt lat="44.29005" lon="6.02694">
        <ele>604.326172</ele>
        <time>2012-01-25T12:56:13Z</time>
      </trkpt>
      <trkpt lat="44.28999" lon="6.02687">
        <ele>604.326172</ele>
        <time>2012-01-25T12:56:18Z</time>
      </trkpt>
      <trkpt lat="44.28984" lon="6.0268">
        <ele>604.806641</ele>
        <time>2012-01-25T12:56:32Z</time>
      </trkpt>
      <trkpt lat="44.28961" lon="6.02663">
        <ele>603.364502</ele>
        <time>2012-01-25T12:56:55Z</time>
      </trkpt>
      <trkpt lat="44.28952" lon="6.02663">
        <ele>603.845215</ele>
        <time>2012-01-25T12:57:03Z</time>
      </trkpt>
      <trkpt lat="44.28934" lon="6.0265">
        <ele>603.364502</ele>
        <time>2012-01-25T12:57:21Z</time>
      </trkpt>
      <trkpt lat="44.28929" lon="6.02644">
        <ele>603.364502</ele>
        <time>2012-01-25T12:57:28Z</time>
      </trkpt>
      <trkpt lat="44.28918" lon="6.02617">
        <ele>602.883789</ele>
        <time>2012-01-25T12:57:47Z</time>
      </trkpt>
      <trkpt lat="44.28917" lon="6.02616">
        <ele>602.883789</ele>
        <time>2012-01-25T12:57:48Z</time>
      </trkpt>
      <trkpt lat="44.28901" lon="6.02597">
        <ele>602.403076</ele>
        <time>2012-01-25T12:58:06Z</time>
      </trkpt>
      <trkpt lat="44.28887" lon="6.02585">
        <ele>602.403076</ele>
        <time>2012-01-25T12:58:21Z</time>
      </trkpt>
      <trkpt lat="44.28881" lon="6.0258">
        <ele>601.922607</ele>
        <time>2012-01-25T12:58:28Z</time>
      </trkpt>
      <trkpt lat="44.28864" lon="6.02569">
        <ele>601.441895</ele>
        <time>2012-01-25T12:58:48Z</time>
      </trkpt>
      <trkpt lat="44.28839" lon="6.02561">
        <ele>601.441895</ele>
        <time>2012-01-25T12:59:09Z</time>
      </trkpt>
      <trkpt lat="44.28833" lon="6.02554">
        <ele>600.961182</ele>
        <time>2012-01-25T12:59:16Z</time>
      </trkpt>
      <trkpt lat="44.28812" lon="6.02545">
        <ele>600.480713</ele>
        <time>2012-01-25T12:59:38Z</time>
      </trkpt>
      <trkpt lat="44.28806" lon="6.02546">
        <ele>600.961182</ele>
        <time>2012-01-25T12:59:43Z</time>
      </trkpt>
      <trkpt lat="44.28801" lon="6.02546">
        <ele>599.519287</ele>
        <time>2012-01-25T12:59:47Z</time>
      </trkpt>
      <trkpt lat="44.28788" lon="6.0255">
        <ele>600.480713</ele>
        <time>2012-01-25T13:00:01Z</time>
      </trkpt>
      <trkpt lat="44.28775" lon="6.02556">
        <ele>599.519287</ele>
        <time>2012-01-25T13:00:14Z</time>
      </trkpt>
      <trkpt lat="44.28743" lon="6.02553">
        <ele>599.519287</ele>
        <time>2012-01-25T13:00:43Z</time>
      </trkpt>
      <trkpt lat="44.28723" lon="6.02555">
        <ele>598.557861</ele>
        <time>2012-01-25T13:01:01Z</time>
      </trkpt>
      <trkpt lat="44.28707" lon="6.02574">
        <ele>598.557861</ele>
        <time>2012-01-25T13:01:22Z</time>
      </trkpt>
      <trkpt lat="44.28697" lon="6.02579">
        <ele>598.557861</ele>
        <time>2012-01-25T13:01:34Z</time>
      </trkpt>
      <trkpt lat="44.28695" lon="6.0258">
        <ele>598.557861</ele>
        <time>2012-01-25T13:01:36Z</time>
      </trkpt>
      <trkpt lat="44.28688" lon="6.02577">
        <ele>598.557861</ele>
        <time>2012-01-25T13:01:43Z</time>
      </trkpt>
      <trkpt lat="44.28673" lon="6.02559">
        <ele>598.077393</ele>
        <time>2012-01-25T13:02:02Z</time>
      </trkpt>
      <trkpt lat="44.2867" lon="6.02558">
        <ele>598.077393</ele>
        <time>2012-01-25T13:02:06Z</time>
      </trkpt>
      <trkpt lat="44.28664" lon="6.02555">
        <ele>598.077393</ele>
        <time>2012-01-25T13:02:13Z</time>
      </trkpt>
      <trkpt lat="44.28649" lon="6.02554">
        <ele>597.59668</ele>
        <time>2012-01-25T13:02:28Z</time>
      </trkpt>
      <trkpt lat="44.28629" lon="6.0253">
        <ele>596.635498</ele>
        <time>2012-01-25T13:02:54Z</time>
      </trkpt>
      <trkpt lat="44.28625" lon="6.02524">
        <ele>596.635498</ele>
        <time>2012-01-25T13:03:00Z</time>
      </trkpt>
      <trkpt lat="44.28607" lon="6.02518">
        <ele>596.635498</ele>
        <time>2012-01-25T13:03:19Z</time>
      </trkpt>
      <trkpt lat="44.28586" lon="6.02508">
        <ele>596.154785</ele>
        <time>2012-01-25T13:03:42Z</time>
      </trkpt>
      <trkpt lat="44.28561" lon="6.02504">
        <ele>596.154785</ele>
        <time>2012-01-25T13:04:04Z</time>
      </trkpt>
      <trkpt lat="44.28553" lon="6.02503">
        <ele>596.635498</ele>
        <time>2012-01-25T13:04:19Z</time>
      </trkpt>
      <trkpt lat="44.28529" lon="6.02506">
        <ele>595.674072</ele>
        <time>2012-01-25T13:04:46Z</time>
      </trkpt>
      <trkpt lat="44.28504" lon="6.02493">
        <ele>596.635498</ele>
        <time>2012-01-25T13:05:16Z</time>
      </trkpt>
      <trkpt lat="44.28487" lon="6.02486">
        <ele>596.154785</ele>
        <time>2012-01-25T13:05:37Z</time>
      </trkpt>
      <trkpt lat="44.28463" lon="6.02479">
        <ele>595.674072</ele>
        <time>2012-01-25T13:06:02Z</time>
      </trkpt>
      <trkpt lat="44.28443" lon="6.02482">
        <ele>593.751465</ele>
        <time>2012-01-25T13:06:31Z</time>
      </trkpt>
      <trkpt lat="44.28419" lon="6.02477">
        <ele>593.751465</ele>
        <time>2012-01-25T13:06:57Z</time>
      </trkpt>
      <trkpt lat="44.28415" lon="6.02469">
        <ele>595.193359</ele>
        <time>2012-01-25T13:07:16Z</time>
      </trkpt>
      <trkpt lat="44.28394" lon="6.02451">
        <ele>595.674072</ele>
        <time>2012-01-25T13:07:39Z</time>
      </trkpt>
      <trkpt lat="44.2838" lon="6.02444">
        <ele>595.193359</ele>
        <time>2012-01-25T13:08:01Z</time>
      </trkpt>
      <trkpt lat="44.28373" lon="6.02438">
        <ele>595.674072</ele>
        <time>2012-01-25T13:08:10Z</time>
      </trkpt>
      <trkpt lat="44.28363" lon="6.02435">
        <ele>594.712646</ele>
        <time>2012-01-25T13:08:20Z</time>
      </trkpt>
      <trkpt lat="44.28342" lon="6.02427">
        <ele>593.751465</ele>
        <time>2012-01-25T13:08:42Z</time>
      </trkpt>
      <trkpt lat="44.28322" lon="6.0242">
        <ele>593.751465</ele>
        <time>2012-01-25T13:09:03Z</time>
      </trkpt>
      <trkpt lat="44.28309" lon="6.0241">
        <ele>594.712646</ele>
        <time>2012-01-25T13:09:18Z</time>
      </trkpt>
      <trkpt lat="44.28303" lon="6.02403">
        <ele>594.232178</ele>
        <time>2012-01-25T13:09:24Z</time>
      </trkpt>
      <trkpt lat="44.28284" lon="6.0239">
        <ele>593.751465</ele>
        <time>2012-01-25T13:09:42Z</time>
      </trkpt>
      <trkpt lat="44.28259" lon="6.02371">
        <ele>594.232178</ele>
        <time>2012-01-25T13:10:13Z</time>
      </trkpt>
      <trkpt lat="44.28238" lon="6.02357">
        <ele>593.270752</ele>
        <time>2012-01-25T13:10:35Z</time>
      </trkpt>
      <trkpt lat="44.28225" lon="6.02328">
        <ele>593.270752</ele>
        <time>2012-01-25T13:10:59Z</time>
      </trkpt>
      <trkpt lat="44.28205" lon="6.02309">
        <ele>594.232178</ele>
        <time>2012-01-25T13:11:26Z</time>
      </trkpt>
      <trkpt lat="44.28192" lon="6.02298">
        <ele>593.270752</ele>
        <time>2012-01-25T13:11:51Z</time>
      </trkpt>
      <trkpt lat="44.28185" lon="6.02288">
        <ele>594.232178</ele>
        <time>2012-01-25T13:12:07Z</time>
      </trkpt>
      <trkpt lat="44.28173" lon="6.02269">
        <ele>593.751465</ele>
        <time>2012-01-25T13:12:25Z</time>
      </trkpt>
      <trkpt lat="44.28158" lon="6.0224">
        <ele>593.751465</ele>
        <time>2012-01-25T13:12:53Z</time>
      </trkpt>
      <trkpt lat="44.28143" lon="6.02215">
        <ele>593.751465</ele>
        <time>2012-01-25T13:13:15Z</time>
      </trkpt>
      <trkpt lat="44.28132" lon="6.02182">
        <ele>594.232178</ele>
        <time>2012-01-25T13:13:41Z</time>
      </trkpt>
      <trkpt lat="44.28123" lon="6.02147">
        <ele>593.751465</ele>
        <time>2012-01-25T13:14:10Z</time>
      </trkpt>
      <trkpt lat="44.2812" lon="6.02092">
        <ele>594.712646</ele>
        <time>2012-01-25T13:14:43Z</time>
      </trkpt>
      <trkpt lat="44.28113" lon="6.02051">
        <ele>595.193359</ele>
        <time>2012-01-25T13:15:12Z</time>
      </trkpt>
      <trkpt lat="44.28109" lon="6.02032">
        <ele>595.193359</ele>
        <time>2012-01-25T13:15:24Z</time>
      </trkpt>
      <trkpt lat="44.281" lon="6.01998">
        <ele>595.193359</ele>
        <time>2012-01-25T13:15:46Z</time>
      </trkpt>
      <trkpt lat="44.28104" lon="6.01965">
        <ele>595.193359</ele>
        <time>2012-01-25T13:16:06Z</time>
      </trkpt>
      <trkpt lat="44.28109" lon="6.01953">
        <ele>595.193359</ele>
        <time>2012-01-25T13:16:16Z</time>
      </trkpt>
      <trkpt lat="44.28111" lon="6.0194">
        <ele>595.193359</ele>
        <time>2012-01-25T13:16:24Z</time>
      </trkpt>
      <trkpt lat="44.28108" lon="6.01935">
        <ele>595.193359</ele>
        <time>2012-01-25T13:16:29Z</time>
      </trkpt>
      <trkpt lat="44.28104" lon="6.01905">
        <ele>594.712646</ele>
        <time>2012-01-25T13:16:50Z</time>
      </trkpt>
      <trkpt lat="44.28104" lon="6.0188">
        <ele>595.193359</ele>
        <time>2012-01-25T13:17:06Z</time>
      </trkpt>
      <trkpt lat="44.28103" lon="6.01861">
        <ele>595.193359</ele>
        <time>2012-01-25T13:17:19Z</time>
      </trkpt>
      <trkpt lat="44.28103" lon="6.01858">
        <ele>595.193359</ele>
        <time>2012-01-25T13:17:21Z</time>
      </trkpt>
      <trkpt lat="44.28108" lon="6.01826">
        <ele>595.193359</ele>
        <time>2012-01-25T13:17:44Z</time>
      </trkpt>
      <trkpt lat="44.28109" lon="6.01823">
        <ele>595.193359</ele>
        <time>2012-01-25T13:17:46Z</time>
      </trkpt>
      <trkpt lat="44.28114" lon="6.01816">
        <ele>595.674072</ele>
        <time>2012-01-25T13:17:54Z</time>
      </trkpt>
      <trkpt lat="44.28132" lon="6.01829">
        <ele>598.077393</ele>
        <time>2012-01-25T13:18:13Z</time>
      </trkpt>
      <trkpt lat="44.28148" lon="6.01834">
        <ele>599.519287</ele>
        <time>2012-01-25T13:18:31Z</time>
      </trkpt>
      <trkpt lat="44.2816" lon="6.01846">
        <ele>602.403076</ele>
        <time>2012-01-25T13:18:50Z</time>
      </trkpt>
      <trkpt lat="44.2817" lon="6.01848">
        <ele>605.287354</ele>
        <time>2012-01-25T13:19:08Z</time>
      </trkpt>
      <trkpt lat="44.28181" lon="6.01854">
        <ele>607.209961</ele>
        <time>2012-01-25T13:19:22Z</time>
      </trkpt>
      <trkpt lat="44.28182" lon="6.01856">
        <ele>607.209961</ele>
        <time>2012-01-25T13:19:23Z</time>
      </trkpt>
      <trkpt lat="44.28182" lon="6.01869">
        <ele>607.690674</ele>
        <time>2012-01-25T13:19:32Z</time>
      </trkpt>
      <trkpt lat="44.28182" lon="6.0188">
        <ele>607.690674</ele>
        <time>2012-01-25T13:19:39Z</time>
      </trkpt>
      <trkpt lat="44.28179" lon="6.01895">
        <ele>605.768066</ele>
        <time>2012-01-25T13:19:52Z</time>
      </trkpt>
      <trkpt lat="44.28179" lon="6.01897">
        <ele>606.248535</ele>
        <time>2012-01-25T13:19:54Z</time>
      </trkpt>
    </trkseg>
  </trk>
</gpx>